<?xml version="1.0" encoding="UTF-8" standalone="no" ?>
<gpx xmlns="http://www.topografix.com/GPX/1/1" xmlns:xsi="http://www.w3.org/2001/XMLSchema-instance" xsi:schemaLocation="http://www.topografix.com/GPX/1/1 http://www.topografix.com/GPX/1/1/gpx.xsd" version="1.1" creator="VisuGPX - https://www.visugpx.com">
  <metadata>
    <name>27/09/2015 - Circuit Lewarde</name>
    <desc><![CDATA[27/09/2015 - Circuit Lewarde]]></desc>
  </metadata>
  <trk>
    <name><![CDATA[Tracé actuel: 27 SEPT 2015 15:14]]></name>
    <trkseg>
      <trkpt lat="50.32411" lon="3.16419">
        <ele>74.64</ele>
        <time>2015-09-27T13:14:55Z</time>
      </trkpt>
      <trkpt lat="50.32411" lon="3.16419">
        <ele>74.64</ele>
        <time>2015-09-27T13:14:56Z</time>
      </trkpt>
      <trkpt lat="50.32412" lon="3.16419">
        <ele>72.72</ele>
        <time>2015-09-27T13:15:01Z</time>
      </trkpt>
      <trkpt lat="50.32407" lon="3.1641">
        <ele>73.2</ele>
        <time>2015-09-27T13:15:13Z</time>
      </trkpt>
      <trkpt lat="50.32404" lon="3.16412">
        <ele>73.68</ele>
        <time>2015-09-27T13:15:23Z</time>
      </trkpt>
      <trkpt lat="50.32399" lon="3.16416">
        <ele>73.68</ele>
        <time>2015-09-27T13:15:36Z</time>
      </trkpt>
      <trkpt lat="50.32401" lon="3.1642">
        <ele>73.68</ele>
        <time>2015-09-27T13:15:50Z</time>
      </trkpt>
      <trkpt lat="50.32398" lon="3.16413">
        <ele>73.68</ele>
        <time>2015-09-27T13:16:09Z</time>
      </trkpt>
      <trkpt lat="50.32397" lon="3.16411">
        <ele>73.2</ele>
        <time>2015-09-27T13:16:27Z</time>
      </trkpt>
      <trkpt lat="50.32396" lon="3.16414">
        <ele>73.68</ele>
        <time>2015-09-27T13:17:01Z</time>
      </trkpt>
      <trkpt lat="50.32396" lon="3.16415">
        <ele>73.68</ele>
        <time>2015-09-27T13:17:35Z</time>
      </trkpt>
      <trkpt lat="50.32397" lon="3.16418">
        <ele>72.24</ele>
        <time>2015-09-27T13:17:42Z</time>
      </trkpt>
      <trkpt lat="50.32396" lon="3.16416">
        <ele>72.24</ele>
        <time>2015-09-27T13:17:51Z</time>
      </trkpt>
      <trkpt lat="50.32408" lon="3.16415">
        <ele>72.24</ele>
        <time>2015-09-27T13:18:02Z</time>
      </trkpt>
      <trkpt lat="50.3241" lon="3.16417">
        <ele>71.76</ele>
        <time>2015-09-27T13:18:06Z</time>
      </trkpt>
      <trkpt lat="50.32423" lon="3.16407">
        <ele>71.27</ele>
        <time>2015-09-27T13:18:24Z</time>
      </trkpt>
      <trkpt lat="50.32432" lon="3.16387">
        <ele>71.27</ele>
        <time>2015-09-27T13:18:39Z</time>
      </trkpt>
      <trkpt lat="50.32433" lon="3.16384">
        <ele>71.27</ele>
        <time>2015-09-27T13:18:41Z</time>
      </trkpt>
      <trkpt lat="50.32442" lon="3.16363">
        <ele>71.27</ele>
        <time>2015-09-27T13:18:58Z</time>
      </trkpt>
      <trkpt lat="50.3245" lon="3.16339">
        <ele>68.87</ele>
        <time>2015-09-27T13:19:14Z</time>
      </trkpt>
      <trkpt lat="50.32454" lon="3.16329">
        <ele>67.91</ele>
        <time>2015-09-27T13:19:27Z</time>
      </trkpt>
      <trkpt lat="50.32457" lon="3.16321">
        <ele>67.43</ele>
        <time>2015-09-27T13:19:38Z</time>
      </trkpt>
      <trkpt lat="50.32457" lon="3.16318">
        <ele>67.43</ele>
        <time>2015-09-27T13:19:41Z</time>
      </trkpt>
      <trkpt lat="50.32464" lon="3.1629">
        <ele>67.43</ele>
        <time>2015-09-27T13:19:57Z</time>
      </trkpt>
      <trkpt lat="50.32467" lon="3.16278">
        <ele>66.95</ele>
        <time>2015-09-27T13:20:09Z</time>
      </trkpt>
      <trkpt lat="50.3247" lon="3.16267">
        <ele>66.47</ele>
        <time>2015-09-27T13:20:16Z</time>
      </trkpt>
      <trkpt lat="50.32478" lon="3.1625">
        <ele>65.03</ele>
        <time>2015-09-27T13:20:30Z</time>
      </trkpt>
      <trkpt lat="50.32479" lon="3.16245">
        <ele>65.51</ele>
        <time>2015-09-27T13:20:42Z</time>
      </trkpt>
      <trkpt lat="50.32483" lon="3.16241">
        <ele>65.03</ele>
        <time>2015-09-27T13:20:47Z</time>
      </trkpt>
      <trkpt lat="50.32486" lon="3.1624">
        <ele>65.99</ele>
        <time>2015-09-27T13:21:00Z</time>
      </trkpt>
      <trkpt lat="50.3249" lon="3.16243">
        <ele>65.99</ele>
        <time>2015-09-27T13:21:11Z</time>
      </trkpt>
      <trkpt lat="50.32495" lon="3.16244">
        <ele>65.51</ele>
        <time>2015-09-27T13:21:18Z</time>
      </trkpt>
      <trkpt lat="50.32497" lon="3.16246">
        <ele>63.58</ele>
        <time>2015-09-27T13:21:20Z</time>
      </trkpt>
      <trkpt lat="50.32507" lon="3.16252">
        <ele>65.51</ele>
        <time>2015-09-27T13:21:32Z</time>
      </trkpt>
      <trkpt lat="50.32509" lon="3.16253">
        <ele>63.58</ele>
        <time>2015-09-27T13:21:34Z</time>
      </trkpt>
      <trkpt lat="50.32526" lon="3.16263">
        <ele>62.14</ele>
        <time>2015-09-27T13:21:51Z</time>
      </trkpt>
      <trkpt lat="50.32527" lon="3.16261">
        <ele>64.07</ele>
        <time>2015-09-27T13:21:55Z</time>
      </trkpt>
      <trkpt lat="50.32528" lon="3.16246">
        <ele>65.03</ele>
        <time>2015-09-27T13:22:07Z</time>
      </trkpt>
      <trkpt lat="50.32526" lon="3.16237">
        <ele>65.99</ele>
        <time>2015-09-27T13:22:19Z</time>
      </trkpt>
      <trkpt lat="50.32527" lon="3.16233">
        <ele>64.55</ele>
        <time>2015-09-27T13:22:25Z</time>
      </trkpt>
      <trkpt lat="50.32527" lon="3.16238">
        <ele>65.99</ele>
        <time>2015-09-27T13:22:37Z</time>
      </trkpt>
      <trkpt lat="50.32527" lon="3.16243">
        <ele>64.55</ele>
        <time>2015-09-27T13:22:40Z</time>
      </trkpt>
      <trkpt lat="50.32527" lon="3.16255">
        <ele>65.03</ele>
        <time>2015-09-27T13:22:49Z</time>
      </trkpt>
      <trkpt lat="50.32527" lon="3.16265">
        <ele>62.62</ele>
        <time>2015-09-27T13:23:05Z</time>
      </trkpt>
      <trkpt lat="50.32527" lon="3.16266">
        <ele>64.55</ele>
        <time>2015-09-27T13:23:10Z</time>
      </trkpt>
      <trkpt lat="50.32526" lon="3.16264">
        <ele>64.07</ele>
        <time>2015-09-27T13:23:40Z</time>
      </trkpt>
      <trkpt lat="50.32525" lon="3.16264">
        <ele>62.62</ele>
        <time>2015-09-27T13:23:53Z</time>
      </trkpt>
      <trkpt lat="50.32527" lon="3.16264">
        <ele>62.14</ele>
        <time>2015-09-27T13:24:16Z</time>
      </trkpt>
      <trkpt lat="50.32527" lon="3.16261">
        <ele>63.58</ele>
        <time>2015-09-27T13:24:20Z</time>
      </trkpt>
      <trkpt lat="50.32527" lon="3.1625">
        <ele>65.03</ele>
        <time>2015-09-27T13:24:31Z</time>
      </trkpt>
      <trkpt lat="50.32525" lon="3.16244">
        <ele>64.55</ele>
        <time>2015-09-27T13:24:50Z</time>
      </trkpt>
      <trkpt lat="50.32525" lon="3.16238">
        <ele>64.55</ele>
        <time>2015-09-27T13:25:08Z</time>
      </trkpt>
      <trkpt lat="50.32524" lon="3.16232">
        <ele>64.55</ele>
        <time>2015-09-27T13:25:21Z</time>
      </trkpt>
      <trkpt lat="50.32525" lon="3.16232">
        <ele>64.55</ele>
        <time>2015-09-27T13:25:40Z</time>
      </trkpt>
      <trkpt lat="50.32524" lon="3.16234">
        <ele>64.55</ele>
        <time>2015-09-27T13:25:45Z</time>
      </trkpt>
      <trkpt lat="50.32525" lon="3.16239">
        <ele>64.55</ele>
        <time>2015-09-27T13:25:48Z</time>
      </trkpt>
      <trkpt lat="50.32525" lon="3.1625">
        <ele>64.07</ele>
        <time>2015-09-27T13:25:55Z</time>
      </trkpt>
      <trkpt lat="50.32526" lon="3.16254">
        <ele>64.07</ele>
        <time>2015-09-27T13:25:57Z</time>
      </trkpt>
      <trkpt lat="50.32527" lon="3.16263">
        <ele>63.58</ele>
        <time>2015-09-27T13:26:09Z</time>
      </trkpt>
      <trkpt lat="50.32531" lon="3.16266">
        <ele>63.58</ele>
        <time>2015-09-27T13:26:13Z</time>
      </trkpt>
      <trkpt lat="50.32538" lon="3.16268">
        <ele>62.14</ele>
        <time>2015-09-27T13:26:19Z</time>
      </trkpt>
      <trkpt lat="50.32544" lon="3.16269">
        <ele>61.66</ele>
        <time>2015-09-27T13:26:26Z</time>
      </trkpt>
      <trkpt lat="50.32554" lon="3.1627">
        <ele>63.1</ele>
        <time>2015-09-27T13:26:36Z</time>
      </trkpt>
      <trkpt lat="50.32567" lon="3.16266">
        <ele>62.62</ele>
        <time>2015-09-27T13:26:49Z</time>
      </trkpt>
      <trkpt lat="50.32579" lon="3.16257">
        <ele>62.62</ele>
        <time>2015-09-27T13:27:05Z</time>
      </trkpt>
      <trkpt lat="50.32591" lon="3.16245">
        <ele>64.07</ele>
        <time>2015-09-27T13:27:20Z</time>
      </trkpt>
      <trkpt lat="50.326" lon="3.1624">
        <ele>65.51</ele>
        <time>2015-09-27T13:27:33Z</time>
      </trkpt>
      <trkpt lat="50.3261" lon="3.16237">
        <ele>65.51</ele>
        <time>2015-09-27T13:27:44Z</time>
      </trkpt>
      <trkpt lat="50.32621" lon="3.16232">
        <ele>65.51</ele>
        <time>2015-09-27T13:27:59Z</time>
      </trkpt>
      <trkpt lat="50.32632" lon="3.16219">
        <ele>65.51</ele>
        <time>2015-09-27T13:28:16Z</time>
      </trkpt>
      <trkpt lat="50.32647" lon="3.16209">
        <ele>65.03</ele>
        <time>2015-09-27T13:28:34Z</time>
      </trkpt>
      <trkpt lat="50.32656" lon="3.16211">
        <ele>65.03</ele>
        <time>2015-09-27T13:28:51Z</time>
      </trkpt>
      <trkpt lat="50.32668" lon="3.16217">
        <ele>65.03</ele>
        <time>2015-09-27T13:29:07Z</time>
      </trkpt>
      <trkpt lat="50.32674" lon="3.16221">
        <ele>65.03</ele>
        <time>2015-09-27T13:29:16Z</time>
      </trkpt>
      <trkpt lat="50.32685" lon="3.16237">
        <ele>64.07</ele>
        <time>2015-09-27T13:29:35Z</time>
      </trkpt>
      <trkpt lat="50.32694" lon="3.16244">
        <ele>63.1</ele>
        <time>2015-09-27T13:29:49Z</time>
      </trkpt>
      <trkpt lat="50.32706" lon="3.16245">
        <ele>62.14</ele>
        <time>2015-09-27T13:30:04Z</time>
      </trkpt>
      <trkpt lat="50.32714" lon="3.16252">
        <ele>61.66</ele>
        <time>2015-09-27T13:30:19Z</time>
      </trkpt>
      <trkpt lat="50.32718" lon="3.16266">
        <ele>61.66</ele>
        <time>2015-09-27T13:30:37Z</time>
      </trkpt>
      <trkpt lat="50.32721" lon="3.16267">
        <ele>61.66</ele>
        <time>2015-09-27T13:30:56Z</time>
      </trkpt>
      <trkpt lat="50.32722" lon="3.16272">
        <ele>62.14</ele>
        <time>2015-09-27T13:31:17Z</time>
      </trkpt>
      <trkpt lat="50.3272" lon="3.16275">
        <ele>62.14</ele>
        <time>2015-09-27T13:31:44Z</time>
      </trkpt>
      <trkpt lat="50.3272" lon="3.16272">
        <ele>62.14</ele>
        <time>2015-09-27T13:32:10Z</time>
      </trkpt>
      <trkpt lat="50.32719" lon="3.16277">
        <ele>62.14</ele>
        <time>2015-09-27T13:32:32Z</time>
      </trkpt>
      <trkpt lat="50.32718" lon="3.16269">
        <ele>62.62</ele>
        <time>2015-09-27T13:32:50Z</time>
      </trkpt>
      <trkpt lat="50.32718" lon="3.16268">
        <ele>62.62</ele>
        <time>2015-09-27T13:32:51Z</time>
      </trkpt>
      <trkpt lat="50.32718" lon="3.16268">
        <ele>62.62</ele>
        <time>2015-09-27T13:33:07Z</time>
      </trkpt>
      <trkpt lat="50.32717" lon="3.16274">
        <ele>61.66</ele>
        <time>2015-09-27T13:33:30Z</time>
      </trkpt>
      <trkpt lat="50.32717" lon="3.16273">
        <ele>61.18</ele>
        <time>2015-09-27T13:33:41Z</time>
      </trkpt>
      <trkpt lat="50.32717" lon="3.16269">
        <ele>63.1</ele>
        <time>2015-09-27T13:33:46Z</time>
      </trkpt>
      <trkpt lat="50.32716" lon="3.1626">
        <ele>63.1</ele>
        <time>2015-09-27T13:34:05Z</time>
      </trkpt>
      <trkpt lat="50.32718" lon="3.16254">
        <ele>60.7</ele>
        <time>2015-09-27T13:34:19Z</time>
      </trkpt>
      <trkpt lat="50.32721" lon="3.1625">
        <ele>58.78</ele>
        <time>2015-09-27T13:34:35Z</time>
      </trkpt>
      <trkpt lat="50.32727" lon="3.16258">
        <ele>58.3</ele>
        <time>2015-09-27T13:34:49Z</time>
      </trkpt>
      <trkpt lat="50.32728" lon="3.16258">
        <ele>59.74</ele>
        <time>2015-09-27T13:34:52Z</time>
      </trkpt>
      <trkpt lat="50.32734" lon="3.16254">
        <ele>62.14</ele>
        <time>2015-09-27T13:35:06Z</time>
      </trkpt>
      <trkpt lat="50.3274" lon="3.16259">
        <ele>62.62</ele>
        <time>2015-09-27T13:35:21Z</time>
      </trkpt>
      <trkpt lat="50.32745" lon="3.16253">
        <ele>62.62</ele>
        <time>2015-09-27T13:35:45Z</time>
      </trkpt>
      <trkpt lat="50.32754" lon="3.16256">
        <ele>62.62</ele>
        <time>2015-09-27T13:35:55Z</time>
      </trkpt>
      <trkpt lat="50.32762" lon="3.16257">
        <ele>62.62</ele>
        <time>2015-09-27T13:36:08Z</time>
      </trkpt>
      <trkpt lat="50.32774" lon="3.16258">
        <ele>63.58</ele>
        <time>2015-09-27T13:36:24Z</time>
      </trkpt>
      <trkpt lat="50.32784" lon="3.16259">
        <ele>63.58</ele>
        <time>2015-09-27T13:36:36Z</time>
      </trkpt>
      <trkpt lat="50.32794" lon="3.16259">
        <ele>63.58</ele>
        <time>2015-09-27T13:36:49Z</time>
      </trkpt>
      <trkpt lat="50.32806" lon="3.16261">
        <ele>64.07</ele>
        <time>2015-09-27T13:37:02Z</time>
      </trkpt>
      <trkpt lat="50.32819" lon="3.16261">
        <ele>64.55</ele>
        <time>2015-09-27T13:37:16Z</time>
      </trkpt>
      <trkpt lat="50.32832" lon="3.16263">
        <ele>64.55</ele>
        <time>2015-09-27T13:37:29Z</time>
      </trkpt>
      <trkpt lat="50.32845" lon="3.16264">
        <ele>64.55</ele>
        <time>2015-09-27T13:37:43Z</time>
      </trkpt>
      <trkpt lat="50.32861" lon="3.16266">
        <ele>64.55</ele>
        <time>2015-09-27T13:37:57Z</time>
      </trkpt>
      <trkpt lat="50.32879" lon="3.1627">
        <ele>64.55</ele>
        <time>2015-09-27T13:38:14Z</time>
      </trkpt>
      <trkpt lat="50.32893" lon="3.1627">
        <ele>64.55</ele>
        <time>2015-09-27T13:38:29Z</time>
      </trkpt>
      <trkpt lat="50.32898" lon="3.16268">
        <ele>64.55</ele>
        <time>2015-09-27T13:38:37Z</time>
      </trkpt>
      <trkpt lat="50.32903" lon="3.16251">
        <ele>65.51</ele>
        <time>2015-09-27T13:38:52Z</time>
      </trkpt>
      <trkpt lat="50.32903" lon="3.16252">
        <ele>65.51</ele>
        <time>2015-09-27T13:39:07Z</time>
      </trkpt>
      <trkpt lat="50.32901" lon="3.16245">
        <ele>65.51</ele>
        <time>2015-09-27T13:39:19Z</time>
      </trkpt>
      <trkpt lat="50.32898" lon="3.16239">
        <ele>65.99</ele>
        <time>2015-09-27T13:39:32Z</time>
      </trkpt>
      <trkpt lat="50.32899" lon="3.16243">
        <ele>65.99</ele>
        <time>2015-09-27T13:39:48Z</time>
      </trkpt>
      <trkpt lat="50.32902" lon="3.16247">
        <ele>64.55</ele>
        <time>2015-09-27T13:39:58Z</time>
      </trkpt>
      <trkpt lat="50.32902" lon="3.16248">
        <ele>64.55</ele>
        <time>2015-09-27T13:39:59Z</time>
      </trkpt>
      <trkpt lat="50.32906" lon="3.16249">
        <ele>64.55</ele>
        <time>2015-09-27T13:40:12Z</time>
      </trkpt>
      <trkpt lat="50.32905" lon="3.16252">
        <ele>64.55</ele>
        <time>2015-09-27T13:40:30Z</time>
      </trkpt>
      <trkpt lat="50.32902" lon="3.16256">
        <ele>64.55</ele>
        <time>2015-09-27T13:40:46Z</time>
      </trkpt>
      <trkpt lat="50.32903" lon="3.16263">
        <ele>63.1</ele>
        <time>2015-09-27T13:41:00Z</time>
      </trkpt>
      <trkpt lat="50.329" lon="3.16262">
        <ele>63.1</ele>
        <time>2015-09-27T13:41:13Z</time>
      </trkpt>
      <trkpt lat="50.32902" lon="3.16262">
        <ele>63.1</ele>
        <time>2015-09-27T13:41:30Z</time>
      </trkpt>
      <trkpt lat="50.32902" lon="3.16265">
        <ele>63.1</ele>
        <time>2015-09-27T13:41:42Z</time>
      </trkpt>
      <trkpt lat="50.32902" lon="3.16267">
        <ele>63.1</ele>
        <time>2015-09-27T13:42:07Z</time>
      </trkpt>
      <trkpt lat="50.32904" lon="3.16263">
        <ele>63.1</ele>
        <time>2015-09-27T13:42:32Z</time>
      </trkpt>
      <trkpt lat="50.32904" lon="3.16265">
        <ele>63.1</ele>
        <time>2015-09-27T13:42:59Z</time>
      </trkpt>
      <trkpt lat="50.32901" lon="3.16268">
        <ele>63.1</ele>
        <time>2015-09-27T13:43:21Z</time>
      </trkpt>
      <trkpt lat="50.32904" lon="3.16264">
        <ele>63.1</ele>
        <time>2015-09-27T13:43:41Z</time>
      </trkpt>
      <trkpt lat="50.32904" lon="3.16267">
        <ele>63.1</ele>
        <time>2015-09-27T13:43:51Z</time>
      </trkpt>
      <trkpt lat="50.32914" lon="3.16272">
        <ele>62.62</ele>
        <time>2015-09-27T13:44:05Z</time>
      </trkpt>
      <trkpt lat="50.32919" lon="3.16272">
        <ele>62.62</ele>
        <time>2015-09-27T13:44:11Z</time>
      </trkpt>
      <trkpt lat="50.32934" lon="3.16273">
        <ele>62.14</ele>
        <time>2015-09-27T13:44:28Z</time>
      </trkpt>
      <trkpt lat="50.32949" lon="3.16275">
        <ele>62.14</ele>
        <time>2015-09-27T13:44:43Z</time>
      </trkpt>
      <trkpt lat="50.32965" lon="3.16276">
        <ele>61.66</ele>
        <time>2015-09-27T13:44:57Z</time>
      </trkpt>
      <trkpt lat="50.32967" lon="3.16276">
        <ele>61.18</ele>
        <time>2015-09-27T13:45:00Z</time>
      </trkpt>
      <trkpt lat="50.32983" lon="3.16277">
        <ele>60.7</ele>
        <time>2015-09-27T13:45:16Z</time>
      </trkpt>
      <trkpt lat="50.32994" lon="3.16279">
        <ele>60.7</ele>
        <time>2015-09-27T13:45:27Z</time>
      </trkpt>
      <trkpt lat="50.33005" lon="3.16284">
        <ele>60.7</ele>
        <time>2015-09-27T13:45:40Z</time>
      </trkpt>
      <trkpt lat="50.33018" lon="3.16296">
        <ele>59.74</ele>
        <time>2015-09-27T13:45:54Z</time>
      </trkpt>
      <trkpt lat="50.33028" lon="3.16307">
        <ele>60.7</ele>
        <time>2015-09-27T13:46:08Z</time>
      </trkpt>
      <trkpt lat="50.33039" lon="3.1632">
        <ele>61.18</ele>
        <time>2015-09-27T13:46:22Z</time>
      </trkpt>
      <trkpt lat="50.33052" lon="3.16333">
        <ele>61.18</ele>
        <time>2015-09-27T13:46:37Z</time>
      </trkpt>
      <trkpt lat="50.33062" lon="3.16345">
        <ele>61.66</ele>
        <time>2015-09-27T13:46:51Z</time>
      </trkpt>
      <trkpt lat="50.33071" lon="3.16355">
        <ele>60.22</ele>
        <time>2015-09-27T13:47:08Z</time>
      </trkpt>
      <trkpt lat="50.33072" lon="3.16356">
        <ele>60.22</ele>
        <time>2015-09-27T13:47:09Z</time>
      </trkpt>
      <trkpt lat="50.33083" lon="3.16369">
        <ele>59.74</ele>
        <time>2015-09-27T13:47:23Z</time>
      </trkpt>
      <trkpt lat="50.33095" lon="3.1638">
        <ele>59.26</ele>
        <time>2015-09-27T13:47:37Z</time>
      </trkpt>
      <trkpt lat="50.33105" lon="3.1639">
        <ele>58.78</ele>
        <time>2015-09-27T13:47:50Z</time>
      </trkpt>
      <trkpt lat="50.33113" lon="3.16402">
        <ele>58.78</ele>
        <time>2015-09-27T13:48:03Z</time>
      </trkpt>
      <trkpt lat="50.33122" lon="3.16411">
        <ele>57.82</ele>
        <time>2015-09-27T13:48:18Z</time>
      </trkpt>
      <trkpt lat="50.33134" lon="3.16424">
        <ele>58.3</ele>
        <time>2015-09-27T13:48:33Z</time>
      </trkpt>
      <trkpt lat="50.33141" lon="3.16432">
        <ele>59.26</ele>
        <time>2015-09-27T13:48:45Z</time>
      </trkpt>
      <trkpt lat="50.33143" lon="3.1644">
        <ele>59.74</ele>
        <time>2015-09-27T13:49:00Z</time>
      </trkpt>
      <trkpt lat="50.33144" lon="3.16442">
        <ele>59.74</ele>
        <time>2015-09-27T13:49:21Z</time>
      </trkpt>
      <trkpt lat="50.33147" lon="3.16442">
        <ele>59.74</ele>
        <time>2015-09-27T13:49:44Z</time>
      </trkpt>
      <trkpt lat="50.33147" lon="3.16443">
        <ele>59.74</ele>
        <time>2015-09-27T13:50:05Z</time>
      </trkpt>
      <trkpt lat="50.33148" lon="3.16449">
        <ele>59.74</ele>
        <time>2015-09-27T13:50:24Z</time>
      </trkpt>
      <trkpt lat="50.33144" lon="3.16456">
        <ele>59.74</ele>
        <time>2015-09-27T13:50:47Z</time>
      </trkpt>
      <trkpt lat="50.33146" lon="3.16453">
        <ele>59.74</ele>
        <time>2015-09-27T13:51:06Z</time>
      </trkpt>
      <trkpt lat="50.33145" lon="3.16451">
        <ele>59.74</ele>
        <time>2015-09-27T13:51:25Z</time>
      </trkpt>
      <trkpt lat="50.33148" lon="3.16451">
        <ele>59.74</ele>
        <time>2015-09-27T13:51:48Z</time>
      </trkpt>
      <trkpt lat="50.33146" lon="3.16444">
        <ele>59.74</ele>
        <time>2015-09-27T13:52:04Z</time>
      </trkpt>
      <trkpt lat="50.33146" lon="3.16441">
        <ele>59.26</ele>
        <time>2015-09-27T13:52:08Z</time>
      </trkpt>
      <trkpt lat="50.33147" lon="3.16436">
        <ele>59.26</ele>
        <time>2015-09-27T13:52:22Z</time>
      </trkpt>
      <trkpt lat="50.33147" lon="3.16425">
        <ele>59.26</ele>
        <time>2015-09-27T13:52:33Z</time>
      </trkpt>
      <trkpt lat="50.33147" lon="3.16423">
        <ele>59.26</ele>
        <time>2015-09-27T13:52:34Z</time>
      </trkpt>
      <trkpt lat="50.33147" lon="3.16418">
        <ele>59.26</ele>
        <time>2015-09-27T13:52:37Z</time>
      </trkpt>
      <trkpt lat="50.33147" lon="3.16413">
        <ele>58.78</ele>
        <time>2015-09-27T13:52:49Z</time>
      </trkpt>
      <trkpt lat="50.33148" lon="3.16397">
        <ele>58.78</ele>
        <time>2015-09-27T13:53:02Z</time>
      </trkpt>
      <trkpt lat="50.33146" lon="3.1639">
        <ele>58.78</ele>
        <time>2015-09-27T13:53:19Z</time>
      </trkpt>
      <trkpt lat="50.33148" lon="3.1638">
        <ele>60.22</ele>
        <time>2015-09-27T13:53:30Z</time>
      </trkpt>
      <trkpt lat="50.33148" lon="3.16379">
        <ele>60.22</ele>
        <time>2015-09-27T13:53:31Z</time>
      </trkpt>
      <trkpt lat="50.33148" lon="3.16373">
        <ele>60.7</ele>
        <time>2015-09-27T13:53:36Z</time>
      </trkpt>
      <trkpt lat="50.3315" lon="3.1636">
        <ele>60.7</ele>
        <time>2015-09-27T13:53:49Z</time>
      </trkpt>
      <trkpt lat="50.33151" lon="3.1636">
        <ele>60.7</ele>
        <time>2015-09-27T13:54:03Z</time>
      </trkpt>
      <trkpt lat="50.33148" lon="3.16362">
        <ele>60.7</ele>
        <time>2015-09-27T13:54:23Z</time>
      </trkpt>
      <trkpt lat="50.3315" lon="3.16356">
        <ele>60.7</ele>
        <time>2015-09-27T13:54:37Z</time>
      </trkpt>
      <trkpt lat="50.33152" lon="3.16343">
        <ele>60.7</ele>
        <time>2015-09-27T13:54:47Z</time>
      </trkpt>
      <trkpt lat="50.33152" lon="3.16337">
        <ele>60.7</ele>
        <time>2015-09-27T13:54:51Z</time>
      </trkpt>
      <trkpt lat="50.33153" lon="3.16317">
        <ele>60.7</ele>
        <time>2015-09-27T13:55:03Z</time>
      </trkpt>
      <trkpt lat="50.33152" lon="3.16305">
        <ele>59.74</ele>
        <time>2015-09-27T13:55:13Z</time>
      </trkpt>
      <trkpt lat="50.33152" lon="3.16298">
        <ele>59.74</ele>
        <time>2015-09-27T13:55:26Z</time>
      </trkpt>
      <trkpt lat="50.33156" lon="3.1629">
        <ele>59.26</ele>
        <time>2015-09-27T13:55:33Z</time>
      </trkpt>
      <trkpt lat="50.33154" lon="3.16277">
        <ele>58.3</ele>
        <time>2015-09-27T13:55:43Z</time>
      </trkpt>
      <trkpt lat="50.33151" lon="3.16263">
        <ele>57.34</ele>
        <time>2015-09-27T13:55:55Z</time>
      </trkpt>
      <trkpt lat="50.33146" lon="3.16249">
        <ele>56.86</ele>
        <time>2015-09-27T13:56:08Z</time>
      </trkpt>
      <trkpt lat="50.33143" lon="3.16243">
        <ele>56.37</ele>
        <time>2015-09-27T13:56:15Z</time>
      </trkpt>
      <trkpt lat="50.33136" lon="3.16229">
        <ele>56.37</ele>
        <time>2015-09-27T13:56:25Z</time>
      </trkpt>
      <trkpt lat="50.33127" lon="3.16216">
        <ele>56.37</ele>
        <time>2015-09-27T13:56:36Z</time>
      </trkpt>
      <trkpt lat="50.33128" lon="3.16203">
        <ele>53.97</ele>
        <time>2015-09-27T13:56:48Z</time>
      </trkpt>
      <trkpt lat="50.33127" lon="3.16195">
        <ele>52.53</ele>
        <time>2015-09-27T13:56:51Z</time>
      </trkpt>
      <trkpt lat="50.33122" lon="3.16167">
        <ele>51.09</ele>
        <time>2015-09-27T13:57:06Z</time>
      </trkpt>
      <trkpt lat="50.3312" lon="3.16164">
        <ele>50.61</ele>
        <time>2015-09-27T13:57:08Z</time>
      </trkpt>
      <trkpt lat="50.33108" lon="3.16138">
        <ele>49.65</ele>
        <time>2015-09-27T13:57:24Z</time>
      </trkpt>
      <trkpt lat="50.33108" lon="3.16137">
        <ele>49.65</ele>
        <time>2015-09-27T13:57:25Z</time>
      </trkpt>
      <trkpt lat="50.33108" lon="3.16131">
        <ele>49.16</ele>
        <time>2015-09-27T13:57:36Z</time>
      </trkpt>
      <trkpt lat="50.33106" lon="3.16126">
        <ele>48.68</ele>
        <time>2015-09-27T13:57:50Z</time>
      </trkpt>
      <trkpt lat="50.33105" lon="3.16124">
        <ele>48.68</ele>
        <time>2015-09-27T13:57:55Z</time>
      </trkpt>
      <trkpt lat="50.33108" lon="3.16129">
        <ele>48.68</ele>
        <time>2015-09-27T13:58:09Z</time>
      </trkpt>
      <trkpt lat="50.33108" lon="3.1613">
        <ele>48.68</ele>
        <time>2015-09-27T13:58:23Z</time>
      </trkpt>
      <trkpt lat="50.33106" lon="3.16126">
        <ele>48.68</ele>
        <time>2015-09-27T13:58:38Z</time>
      </trkpt>
      <trkpt lat="50.3311" lon="3.16128">
        <ele>48.68</ele>
        <time>2015-09-27T13:58:56Z</time>
      </trkpt>
      <trkpt lat="50.33111" lon="3.16128">
        <ele>48.68</ele>
        <time>2015-09-27T13:59:18Z</time>
      </trkpt>
      <trkpt lat="50.33112" lon="3.16141">
        <ele>49.65</ele>
        <time>2015-09-27T13:59:30Z</time>
      </trkpt>
      <trkpt lat="50.3312" lon="3.16162">
        <ele>50.61</ele>
        <time>2015-09-27T13:59:44Z</time>
      </trkpt>
      <trkpt lat="50.33121" lon="3.16164">
        <ele>50.61</ele>
        <time>2015-09-27T13:59:45Z</time>
      </trkpt>
      <trkpt lat="50.33125" lon="3.16183">
        <ele>52.05</ele>
        <time>2015-09-27T13:59:58Z</time>
      </trkpt>
      <trkpt lat="50.33122" lon="3.16192">
        <ele>55.41</ele>
        <time>2015-09-27T14:00:07Z</time>
      </trkpt>
      <trkpt lat="50.33122" lon="3.16199">
        <ele>55.89</ele>
        <time>2015-09-27T14:00:22Z</time>
      </trkpt>
      <trkpt lat="50.33128" lon="3.16217">
        <ele>55.89</ele>
        <time>2015-09-27T14:00:34Z</time>
      </trkpt>
      <trkpt lat="50.33138" lon="3.16234">
        <ele>56.86</ele>
        <time>2015-09-27T14:00:49Z</time>
      </trkpt>
      <trkpt lat="50.33145" lon="3.16252">
        <ele>56.86</ele>
        <time>2015-09-27T14:01:08Z</time>
      </trkpt>
      <trkpt lat="50.3315" lon="3.16266">
        <ele>56.86</ele>
        <time>2015-09-27T14:01:30Z</time>
      </trkpt>
      <trkpt lat="50.33157" lon="3.16283">
        <ele>57.82</ele>
        <time>2015-09-27T14:01:49Z</time>
      </trkpt>
      <trkpt lat="50.33166" lon="3.16296">
        <ele>58.78</ele>
        <time>2015-09-27T14:02:07Z</time>
      </trkpt>
      <trkpt lat="50.33177" lon="3.16304">
        <ele>58.3</ele>
        <time>2015-09-27T14:02:22Z</time>
      </trkpt>
      <trkpt lat="50.33188" lon="3.1631">
        <ele>58.78</ele>
        <time>2015-09-27T14:02:35Z</time>
      </trkpt>
      <trkpt lat="50.332" lon="3.16314">
        <ele>58.78</ele>
        <time>2015-09-27T14:02:51Z</time>
      </trkpt>
      <trkpt lat="50.3321" lon="3.16317">
        <ele>59.26</ele>
        <time>2015-09-27T14:03:06Z</time>
      </trkpt>
      <trkpt lat="50.33218" lon="3.16318">
        <ele>59.26</ele>
        <time>2015-09-27T14:03:18Z</time>
      </trkpt>
      <trkpt lat="50.33223" lon="3.16312">
        <ele>59.74</ele>
        <time>2015-09-27T14:03:29Z</time>
      </trkpt>
      <trkpt lat="50.33224" lon="3.1631">
        <ele>58.3</ele>
        <time>2015-09-27T14:03:35Z</time>
      </trkpt>
      <trkpt lat="50.33224" lon="3.16301">
        <ele>57.82</ele>
        <time>2015-09-27T14:03:42Z</time>
      </trkpt>
      <trkpt lat="50.33224" lon="3.16292">
        <ele>57.34</ele>
        <time>2015-09-27T14:03:47Z</time>
      </trkpt>
      <trkpt lat="50.33225" lon="3.16284">
        <ele>56.37</ele>
        <time>2015-09-27T14:03:54Z</time>
      </trkpt>
      <trkpt lat="50.33228" lon="3.1626">
        <ele>55.41</ele>
        <time>2015-09-27T14:04:08Z</time>
      </trkpt>
      <trkpt lat="50.33228" lon="3.16249">
        <ele>54.93</ele>
        <time>2015-09-27T14:04:15Z</time>
      </trkpt>
      <trkpt lat="50.33233" lon="3.1624">
        <ele>53.97</ele>
        <time>2015-09-27T14:04:28Z</time>
      </trkpt>
      <trkpt lat="50.33242" lon="3.16242">
        <ele>53.97</ele>
        <time>2015-09-27T14:04:43Z</time>
      </trkpt>
      <trkpt lat="50.33251" lon="3.16248">
        <ele>53.49</ele>
        <time>2015-09-27T14:04:56Z</time>
      </trkpt>
      <trkpt lat="50.3326" lon="3.16245">
        <ele>53.01</ele>
        <time>2015-09-27T14:05:11Z</time>
      </trkpt>
      <trkpt lat="50.33266" lon="3.16239">
        <ele>52.05</ele>
        <time>2015-09-27T14:05:25Z</time>
      </trkpt>
      <trkpt lat="50.33267" lon="3.16228">
        <ele>51.09</ele>
        <time>2015-09-27T14:05:38Z</time>
      </trkpt>
      <trkpt lat="50.33265" lon="3.16221">
        <ele>50.61</ele>
        <time>2015-09-27T14:05:43Z</time>
      </trkpt>
      <trkpt lat="50.33272" lon="3.16209">
        <ele>50.13</ele>
        <time>2015-09-27T14:05:58Z</time>
      </trkpt>
      <trkpt lat="50.33278" lon="3.16195">
        <ele>49.65</ele>
        <time>2015-09-27T14:06:12Z</time>
      </trkpt>
      <trkpt lat="50.33284" lon="3.16194">
        <ele>49.16</ele>
        <time>2015-09-27T14:06:22Z</time>
      </trkpt>
      <trkpt lat="50.33287" lon="3.16196">
        <ele>49.65</ele>
        <time>2015-09-27T14:06:43Z</time>
      </trkpt>
      <trkpt lat="50.33287" lon="3.16195">
        <ele>49.65</ele>
        <time>2015-09-27T14:06:59Z</time>
      </trkpt>
      <trkpt lat="50.33289" lon="3.16199">
        <ele>49.65</ele>
        <time>2015-09-27T14:07:17Z</time>
      </trkpt>
      <trkpt lat="50.33284" lon="3.16196">
        <ele>49.65</ele>
        <time>2015-09-27T14:07:40Z</time>
      </trkpt>
      <trkpt lat="50.33285" lon="3.16195">
        <ele>49.65</ele>
        <time>2015-09-27T14:07:46Z</time>
      </trkpt>
      <trkpt lat="50.33278" lon="3.16217">
        <ele>50.13</ele>
        <time>2015-09-27T14:08:03Z</time>
      </trkpt>
      <trkpt lat="50.33271" lon="3.16239">
        <ele>53.49</ele>
        <time>2015-09-27T14:08:18Z</time>
      </trkpt>
      <trkpt lat="50.33271" lon="3.16243">
        <ele>53.49</ele>
        <time>2015-09-27T14:08:21Z</time>
      </trkpt>
      <trkpt lat="50.33265" lon="3.16257">
        <ele>53.97</ele>
        <time>2015-09-27T14:08:37Z</time>
      </trkpt>
      <trkpt lat="50.33256" lon="3.16251">
        <ele>54.45</ele>
        <time>2015-09-27T14:08:55Z</time>
      </trkpt>
      <trkpt lat="50.33247" lon="3.1625">
        <ele>54.45</ele>
        <time>2015-09-27T14:09:08Z</time>
      </trkpt>
      <trkpt lat="50.33244" lon="3.1625">
        <ele>54.45</ele>
        <time>2015-09-27T14:09:12Z</time>
      </trkpt>
      <trkpt lat="50.33236" lon="3.16249">
        <ele>53.49</ele>
        <time>2015-09-27T14:09:21Z</time>
      </trkpt>
      <trkpt lat="50.33235" lon="3.16253">
        <ele>54.45</ele>
        <time>2015-09-27T14:09:25Z</time>
      </trkpt>
      <trkpt lat="50.33229" lon="3.16252">
        <ele>54.93</ele>
        <time>2015-09-27T14:09:43Z</time>
      </trkpt>
      <trkpt lat="50.33228" lon="3.1625">
        <ele>54.93</ele>
        <time>2015-09-27T14:09:58Z</time>
      </trkpt>
      <trkpt lat="50.33226" lon="3.16249">
        <ele>54.93</ele>
        <time>2015-09-27T14:10:13Z</time>
      </trkpt>
      <trkpt lat="50.33226" lon="3.1624">
        <ele>54.93</ele>
        <time>2015-09-27T14:10:38Z</time>
      </trkpt>
      <trkpt lat="50.33222" lon="3.16243">
        <ele>55.89</ele>
        <time>2015-09-27T14:11:05Z</time>
      </trkpt>
      <trkpt lat="50.33225" lon="3.16247">
        <ele>54.93</ele>
        <time>2015-09-27T14:11:31Z</time>
      </trkpt>
      <trkpt lat="50.33223" lon="3.16244">
        <ele>54.93</ele>
        <time>2015-09-27T14:12:02Z</time>
      </trkpt>
      <trkpt lat="50.33214" lon="3.16245">
        <ele>54.93</ele>
        <time>2015-09-27T14:12:25Z</time>
      </trkpt>
      <trkpt lat="50.33216" lon="3.16244">
        <ele>55.41</ele>
        <time>2015-09-27T14:12:48Z</time>
      </trkpt>
      <trkpt lat="50.33221" lon="3.16232">
        <ele>55.41</ele>
        <time>2015-09-27T14:13:17Z</time>
      </trkpt>
      <trkpt lat="50.33222" lon="3.16223">
        <ele>56.37</ele>
        <time>2015-09-27T14:13:32Z</time>
      </trkpt>
      <trkpt lat="50.33224" lon="3.16235">
        <ele>55.89</ele>
        <time>2015-09-27T14:13:54Z</time>
      </trkpt>
      <trkpt lat="50.33223" lon="3.16244">
        <ele>55.89</ele>
        <time>2015-09-27T14:14:21Z</time>
      </trkpt>
      <trkpt lat="50.33224" lon="3.16254">
        <ele>56.37</ele>
        <time>2015-09-27T14:14:48Z</time>
      </trkpt>
      <trkpt lat="50.33219" lon="3.16253">
        <ele>56.37</ele>
        <time>2015-09-27T14:15:08Z</time>
      </trkpt>
      <trkpt lat="50.33223" lon="3.16246">
        <ele>56.86</ele>
        <time>2015-09-27T14:15:29Z</time>
      </trkpt>
      <trkpt lat="50.33222" lon="3.1625">
        <ele>56.86</ele>
        <time>2015-09-27T14:15:55Z</time>
      </trkpt>
      <trkpt lat="50.33224" lon="3.16256">
        <ele>56.86</ele>
        <time>2015-09-27T14:16:19Z</time>
      </trkpt>
      <trkpt lat="50.33223" lon="3.1626">
        <ele>56.86</ele>
        <time>2015-09-27T14:16:46Z</time>
      </trkpt>
      <trkpt lat="50.33224" lon="3.16257">
        <ele>56.86</ele>
        <time>2015-09-27T14:17:13Z</time>
      </trkpt>
      <trkpt lat="50.33222" lon="3.16253">
        <ele>56.86</ele>
        <time>2015-09-27T14:17:38Z</time>
      </trkpt>
      <trkpt lat="50.3322" lon="3.16256">
        <ele>56.86</ele>
        <time>2015-09-27T14:18:06Z</time>
      </trkpt>
      <trkpt lat="50.33222" lon="3.16255">
        <ele>57.34</ele>
        <time>2015-09-27T14:18:41Z</time>
      </trkpt>
      <trkpt lat="50.3322" lon="3.16252">
        <ele>57.34</ele>
        <time>2015-09-27T14:19:14Z</time>
      </trkpt>
      <trkpt lat="50.33218" lon="3.16254">
        <ele>57.34</ele>
        <time>2015-09-27T14:19:50Z</time>
      </trkpt>
      <trkpt lat="50.33219" lon="3.16253">
        <ele>57.34</ele>
        <time>2015-09-27T14:20:20Z</time>
      </trkpt>
      <trkpt lat="50.33219" lon="3.16249">
        <ele>58.3</ele>
        <time>2015-09-27T14:20:50Z</time>
      </trkpt>
      <trkpt lat="50.33218" lon="3.1625">
        <ele>56.86</ele>
        <time>2015-09-27T14:20:55Z</time>
      </trkpt>
      <trkpt lat="50.33223" lon="3.16244">
        <ele>56.86</ele>
        <time>2015-09-27T14:21:17Z</time>
      </trkpt>
      <trkpt lat="50.33227" lon="3.1625">
        <ele>56.86</ele>
        <time>2015-09-27T14:21:35Z</time>
      </trkpt>
      <trkpt lat="50.33227" lon="3.16255">
        <ele>56.86</ele>
        <time>2015-09-27T14:21:51Z</time>
      </trkpt>
      <trkpt lat="50.33224" lon="3.16257">
        <ele>57.82</ele>
        <time>2015-09-27T14:22:13Z</time>
      </trkpt>
      <trkpt lat="50.33224" lon="3.16254">
        <ele>57.82</ele>
        <time>2015-09-27T14:22:30Z</time>
      </trkpt>
      <trkpt lat="50.33223" lon="3.16248">
        <ele>57.82</ele>
        <time>2015-09-27T14:22:59Z</time>
      </trkpt>
      <trkpt lat="50.33223" lon="3.16249">
        <ele>57.82</ele>
        <time>2015-09-27T14:23:30Z</time>
      </trkpt>
      <trkpt lat="50.33225" lon="3.16251">
        <ele>57.82</ele>
        <time>2015-09-27T14:23:45Z</time>
      </trkpt>
      <trkpt lat="50.33227" lon="3.16249">
        <ele>57.82</ele>
        <time>2015-09-27T14:24:07Z</time>
      </trkpt>
      <trkpt lat="50.33231" lon="3.16253">
        <ele>57.34</ele>
        <time>2015-09-27T14:24:29Z</time>
      </trkpt>
      <trkpt lat="50.33235" lon="3.16254">
        <ele>56.86</ele>
        <time>2015-09-27T14:25:03Z</time>
      </trkpt>
      <trkpt lat="50.33228" lon="3.16243">
        <ele>58.3</ele>
        <time>2015-09-27T14:25:22Z</time>
      </trkpt>
      <trkpt lat="50.3323" lon="3.16248">
        <ele>58.3</ele>
        <time>2015-09-27T14:25:46Z</time>
      </trkpt>
      <trkpt lat="50.33231" lon="3.1625">
        <ele>58.3</ele>
        <time>2015-09-27T14:26:07Z</time>
      </trkpt>
      <trkpt lat="50.33233" lon="3.1625">
        <ele>58.3</ele>
        <time>2015-09-27T14:26:29Z</time>
      </trkpt>
      <trkpt lat="50.33232" lon="3.16254">
        <ele>58.3</ele>
        <time>2015-09-27T14:26:57Z</time>
      </trkpt>
      <trkpt lat="50.33232" lon="3.16253">
        <ele>58.3</ele>
        <time>2015-09-27T14:27:20Z</time>
      </trkpt>
      <trkpt lat="50.33231" lon="3.16237">
        <ele>56.86</ele>
        <time>2015-09-27T14:27:32Z</time>
      </trkpt>
      <trkpt lat="50.33233" lon="3.16239">
        <ele>56.37</ele>
        <time>2015-09-27T14:27:53Z</time>
      </trkpt>
      <trkpt lat="50.33241" lon="3.16244">
        <ele>56.37</ele>
        <time>2015-09-27T14:28:06Z</time>
      </trkpt>
      <trkpt lat="50.33251" lon="3.16252">
        <ele>56.37</ele>
        <time>2015-09-27T14:28:20Z</time>
      </trkpt>
      <trkpt lat="50.33263" lon="3.16258">
        <ele>56.37</ele>
        <time>2015-09-27T14:28:33Z</time>
      </trkpt>
      <trkpt lat="50.33273" lon="3.16269">
        <ele>57.34</ele>
        <time>2015-09-27T14:28:49Z</time>
      </trkpt>
      <trkpt lat="50.33286" lon="3.16283">
        <ele>57.82</ele>
        <time>2015-09-27T14:29:02Z</time>
      </trkpt>
      <trkpt lat="50.33292" lon="3.16288">
        <ele>57.82</ele>
        <time>2015-09-27T14:29:09Z</time>
      </trkpt>
      <trkpt lat="50.33303" lon="3.16297">
        <ele>57.82</ele>
        <time>2015-09-27T14:29:18Z</time>
      </trkpt>
      <trkpt lat="50.33305" lon="3.16298">
        <ele>56.37</ele>
        <time>2015-09-27T14:29:20Z</time>
      </trkpt>
      <trkpt lat="50.33316" lon="3.16311">
        <ele>56.37</ele>
        <time>2015-09-27T14:29:35Z</time>
      </trkpt>
      <trkpt lat="50.3332" lon="3.16315">
        <ele>56.37</ele>
        <time>2015-09-27T14:29:40Z</time>
      </trkpt>
      <trkpt lat="50.33323" lon="3.16317">
        <ele>56.37</ele>
        <time>2015-09-27T14:29:42Z</time>
      </trkpt>
      <trkpt lat="50.33334" lon="3.1633">
        <ele>57.34</ele>
        <time>2015-09-27T14:29:54Z</time>
      </trkpt>
      <trkpt lat="50.33353" lon="3.16348">
        <ele>57.34</ele>
        <time>2015-09-27T14:30:11Z</time>
      </trkpt>
      <trkpt lat="50.33368" lon="3.16365">
        <ele>57.34</ele>
        <time>2015-09-27T14:30:26Z</time>
      </trkpt>
      <trkpt lat="50.33383" lon="3.16382">
        <ele>57.34</ele>
        <time>2015-09-27T14:30:41Z</time>
      </trkpt>
      <trkpt lat="50.33398" lon="3.16397">
        <ele>56.86</ele>
        <time>2015-09-27T14:30:58Z</time>
      </trkpt>
      <trkpt lat="50.33403" lon="3.16403">
        <ele>56.86</ele>
        <time>2015-09-27T14:31:03Z</time>
      </trkpt>
      <trkpt lat="50.33409" lon="3.16407">
        <ele>56.86</ele>
        <time>2015-09-27T14:31:07Z</time>
      </trkpt>
      <trkpt lat="50.33424" lon="3.16416">
        <ele>57.34</ele>
        <time>2015-09-27T14:31:22Z</time>
      </trkpt>
      <trkpt lat="50.33432" lon="3.16422">
        <ele>57.34</ele>
        <time>2015-09-27T14:31:37Z</time>
      </trkpt>
      <trkpt lat="50.33442" lon="3.16425">
        <ele>57.34</ele>
        <time>2015-09-27T14:31:49Z</time>
      </trkpt>
      <trkpt lat="50.33445" lon="3.16423">
        <ele>57.34</ele>
        <time>2015-09-27T14:31:52Z</time>
      </trkpt>
      <trkpt lat="50.33456" lon="3.16409">
        <ele>53.97</ele>
        <time>2015-09-27T14:32:06Z</time>
      </trkpt>
      <trkpt lat="50.33448" lon="3.16399">
        <ele>53.49</ele>
        <time>2015-09-27T14:32:24Z</time>
      </trkpt>
      <trkpt lat="50.33445" lon="3.16401">
        <ele>53.49</ele>
        <time>2015-09-27T14:32:40Z</time>
      </trkpt>
      <trkpt lat="50.33445" lon="3.16396">
        <ele>53.49</ele>
        <time>2015-09-27T14:33:00Z</time>
      </trkpt>
      <trkpt lat="50.3345" lon="3.16399">
        <ele>53.01</ele>
        <time>2015-09-27T14:33:18Z</time>
      </trkpt>
      <trkpt lat="50.33447" lon="3.16401">
        <ele>53.01</ele>
        <time>2015-09-27T14:33:34Z</time>
      </trkpt>
      <trkpt lat="50.33445" lon="3.16395">
        <ele>52.53</ele>
        <time>2015-09-27T14:33:56Z</time>
      </trkpt>
      <trkpt lat="50.33448" lon="3.16395">
        <ele>52.53</ele>
        <time>2015-09-27T14:34:22Z</time>
      </trkpt>
      <trkpt lat="50.33452" lon="3.16395">
        <ele>52.05</ele>
        <time>2015-09-27T14:34:39Z</time>
      </trkpt>
      <trkpt lat="50.33455" lon="3.16397">
        <ele>52.05</ele>
        <time>2015-09-27T14:34:50Z</time>
      </trkpt>
      <trkpt lat="50.33455" lon="3.164">
        <ele>53.49</ele>
        <time>2015-09-27T14:35:09Z</time>
      </trkpt>
      <trkpt lat="50.33457" lon="3.16399">
        <ele>53.49</ele>
        <time>2015-09-27T14:35:31Z</time>
      </trkpt>
      <trkpt lat="50.33465" lon="3.16394">
        <ele>53.01</ele>
        <time>2015-09-27T14:35:51Z</time>
      </trkpt>
      <trkpt lat="50.33468" lon="3.16381">
        <ele>51.09</ele>
        <time>2015-09-27T14:36:04Z</time>
      </trkpt>
      <trkpt lat="50.33472" lon="3.16361">
        <ele>49.65</ele>
        <time>2015-09-27T14:36:24Z</time>
      </trkpt>
      <trkpt lat="50.33479" lon="3.16344">
        <ele>48.2</ele>
        <time>2015-09-27T14:36:38Z</time>
      </trkpt>
      <trkpt lat="50.33485" lon="3.16332">
        <ele>46.76</ele>
        <time>2015-09-27T14:36:48Z</time>
      </trkpt>
      <trkpt lat="50.33489" lon="3.1631">
        <ele>45.32</ele>
        <time>2015-09-27T14:37:04Z</time>
      </trkpt>
      <trkpt lat="50.33496" lon="3.16291">
        <ele>43.88</ele>
        <time>2015-09-27T14:37:22Z</time>
      </trkpt>
      <trkpt lat="50.335" lon="3.16273">
        <ele>43.4</ele>
        <time>2015-09-27T14:37:36Z</time>
      </trkpt>
      <trkpt lat="50.33506" lon="3.1625">
        <ele>41.95</ele>
        <time>2015-09-27T14:37:51Z</time>
      </trkpt>
      <trkpt lat="50.33513" lon="3.16231">
        <ele>40.99</ele>
        <time>2015-09-27T14:38:08Z</time>
      </trkpt>
      <trkpt lat="50.3352" lon="3.16228">
        <ele>40.99</ele>
        <time>2015-09-27T14:38:22Z</time>
      </trkpt>
      <trkpt lat="50.33526" lon="3.16231">
        <ele>40.99</ele>
        <time>2015-09-27T14:38:52Z</time>
      </trkpt>
      <trkpt lat="50.33523" lon="3.16229">
        <ele>40.51</ele>
        <time>2015-09-27T14:39:31Z</time>
      </trkpt>
      <trkpt lat="50.33522" lon="3.16238">
        <ele>40.51</ele>
        <time>2015-09-27T14:39:55Z</time>
      </trkpt>
      <trkpt lat="50.33525" lon="3.16237">
        <ele>40.51</ele>
        <time>2015-09-27T14:40:28Z</time>
      </trkpt>
      <trkpt lat="50.33529" lon="3.16232">
        <ele>40.51</ele>
        <time>2015-09-27T14:40:44Z</time>
      </trkpt>
      <trkpt lat="50.33531" lon="3.16231">
        <ele>40.51</ele>
        <time>2015-09-27T14:40:45Z</time>
      </trkpt>
      <trkpt lat="50.33545" lon="3.1624">
        <ele>40.51</ele>
        <time>2015-09-27T14:40:59Z</time>
      </trkpt>
      <trkpt lat="50.33556" lon="3.1625">
        <ele>40.51</ele>
        <time>2015-09-27T14:41:15Z</time>
      </trkpt>
      <trkpt lat="50.33562" lon="3.16262">
        <ele>41.47</ele>
        <time>2015-09-27T14:41:32Z</time>
      </trkpt>
      <trkpt lat="50.33574" lon="3.16265">
        <ele>41.47</ele>
        <time>2015-09-27T14:41:46Z</time>
      </trkpt>
      <trkpt lat="50.33583" lon="3.1626">
        <ele>41.47</ele>
        <time>2015-09-27T14:42:00Z</time>
      </trkpt>
      <trkpt lat="50.33582" lon="3.16257">
        <ele>41.47</ele>
        <time>2015-09-27T14:42:13Z</time>
      </trkpt>
      <trkpt lat="50.33578" lon="3.16266">
        <ele>41.47</ele>
        <time>2015-09-27T14:42:26Z</time>
      </trkpt>
      <trkpt lat="50.33581" lon="3.16279">
        <ele>41.95</ele>
        <time>2015-09-27T14:42:46Z</time>
      </trkpt>
      <trkpt lat="50.33588" lon="3.16282">
        <ele>42.44</ele>
        <time>2015-09-27T14:43:01Z</time>
      </trkpt>
      <trkpt lat="50.33599" lon="3.16294">
        <ele>42.44</ele>
        <time>2015-09-27T14:43:18Z</time>
      </trkpt>
      <trkpt lat="50.33612" lon="3.16306">
        <ele>42.92</ele>
        <time>2015-09-27T14:43:36Z</time>
      </trkpt>
      <trkpt lat="50.33623" lon="3.16313">
        <ele>43.4</ele>
        <time>2015-09-27T14:43:50Z</time>
      </trkpt>
      <trkpt lat="50.33628" lon="3.16328">
        <ele>44.36</ele>
        <time>2015-09-27T14:44:06Z</time>
      </trkpt>
      <trkpt lat="50.3363" lon="3.16336">
        <ele>44.84</ele>
        <time>2015-09-27T14:44:11Z</time>
      </trkpt>
      <trkpt lat="50.33629" lon="3.16357">
        <ele>46.28</ele>
        <time>2015-09-27T14:44:24Z</time>
      </trkpt>
      <trkpt lat="50.33633" lon="3.16369">
        <ele>47.72</ele>
        <time>2015-09-27T14:44:35Z</time>
      </trkpt>
      <trkpt lat="50.33632" lon="3.16384">
        <ele>48.68</ele>
        <time>2015-09-27T14:44:46Z</time>
      </trkpt>
      <trkpt lat="50.33631" lon="3.16413">
        <ele>49.65</ele>
        <time>2015-09-27T14:45:02Z</time>
      </trkpt>
      <trkpt lat="50.33628" lon="3.16431">
        <ele>52.05</ele>
        <time>2015-09-27T14:45:16Z</time>
      </trkpt>
      <trkpt lat="50.33625" lon="3.16457">
        <ele>53.01</ele>
        <time>2015-09-27T14:45:33Z</time>
      </trkpt>
      <trkpt lat="50.33625" lon="3.16474">
        <ele>54.93</ele>
        <time>2015-09-27T14:45:50Z</time>
      </trkpt>
      <trkpt lat="50.33624" lon="3.1647">
        <ele>54.93</ele>
        <time>2015-09-27T14:46:07Z</time>
      </trkpt>
      <trkpt lat="50.33624" lon="3.16468">
        <ele>54.93</ele>
        <time>2015-09-27T14:46:23Z</time>
      </trkpt>
      <trkpt lat="50.3363" lon="3.16487">
        <ele>54.93</ele>
        <time>2015-09-27T14:46:37Z</time>
      </trkpt>
      <trkpt lat="50.3364" lon="3.16499">
        <ele>53.49</ele>
        <time>2015-09-27T14:46:54Z</time>
      </trkpt>
      <trkpt lat="50.33648" lon="3.16513">
        <ele>52.53</ele>
        <time>2015-09-27T14:47:11Z</time>
      </trkpt>
      <trkpt lat="50.33643" lon="3.16505">
        <ele>53.49</ele>
        <time>2015-09-27T14:47:33Z</time>
      </trkpt>
      <trkpt lat="50.33642" lon="3.16504">
        <ele>53.49</ele>
        <time>2015-09-27T14:47:34Z</time>
      </trkpt>
      <trkpt lat="50.33641" lon="3.16502">
        <ele>53.49</ele>
        <time>2015-09-27T14:47:49Z</time>
      </trkpt>
      <trkpt lat="50.33638" lon="3.16499">
        <ele>53.49</ele>
        <time>2015-09-27T14:48:07Z</time>
      </trkpt>
      <trkpt lat="50.33632" lon="3.16494">
        <ele>53.97</ele>
        <time>2015-09-27T14:48:20Z</time>
      </trkpt>
      <trkpt lat="50.33626" lon="3.16486">
        <ele>54.93</ele>
        <time>2015-09-27T14:48:38Z</time>
      </trkpt>
      <trkpt lat="50.33621" lon="3.16481">
        <ele>54.93</ele>
        <time>2015-09-27T14:49:01Z</time>
      </trkpt>
      <trkpt lat="50.33609" lon="3.16473">
        <ele>55.41</ele>
        <time>2015-09-27T14:49:13Z</time>
      </trkpt>
      <trkpt lat="50.336" lon="3.16471">
        <ele>55.41</ele>
        <time>2015-09-27T14:49:26Z</time>
      </trkpt>
      <trkpt lat="50.33594" lon="3.1647">
        <ele>55.89</ele>
        <time>2015-09-27T14:49:32Z</time>
      </trkpt>
      <trkpt lat="50.33578" lon="3.16466">
        <ele>55.89</ele>
        <time>2015-09-27T14:49:48Z</time>
      </trkpt>
      <trkpt lat="50.33568" lon="3.16466">
        <ele>55.89</ele>
        <time>2015-09-27T14:49:58Z</time>
      </trkpt>
      <trkpt lat="50.33558" lon="3.16467">
        <ele>55.89</ele>
        <time>2015-09-27T14:50:09Z</time>
      </trkpt>
      <trkpt lat="50.33544" lon="3.16467">
        <ele>55.89</ele>
        <time>2015-09-27T14:50:20Z</time>
      </trkpt>
      <trkpt lat="50.33536" lon="3.16465">
        <ele>56.37</ele>
        <time>2015-09-27T14:50:32Z</time>
      </trkpt>
      <trkpt lat="50.33531" lon="3.16463">
        <ele>56.37</ele>
        <time>2015-09-27T14:50:52Z</time>
      </trkpt>
      <trkpt lat="50.3352" lon="3.16464">
        <ele>56.37</ele>
        <time>2015-09-27T14:51:05Z</time>
      </trkpt>
      <trkpt lat="50.33516" lon="3.16464">
        <ele>56.37</ele>
        <time>2015-09-27T14:51:08Z</time>
      </trkpt>
      <trkpt lat="50.33505" lon="3.16465">
        <ele>56.37</ele>
        <time>2015-09-27T14:51:18Z</time>
      </trkpt>
      <trkpt lat="50.33497" lon="3.16465">
        <ele>56.37</ele>
        <time>2015-09-27T14:51:28Z</time>
      </trkpt>
      <trkpt lat="50.33488" lon="3.16465">
        <ele>56.37</ele>
        <time>2015-09-27T14:51:40Z</time>
      </trkpt>
      <trkpt lat="50.33474" lon="3.16466">
        <ele>56.37</ele>
        <time>2015-09-27T14:51:53Z</time>
      </trkpt>
      <trkpt lat="50.33468" lon="3.16466">
        <ele>56.37</ele>
        <time>2015-09-27T14:51:59Z</time>
      </trkpt>
      <trkpt lat="50.33456" lon="3.16464">
        <ele>56.37</ele>
        <time>2015-09-27T14:52:11Z</time>
      </trkpt>
      <trkpt lat="50.3345" lon="3.16472">
        <ele>56.37</ele>
        <time>2015-09-27T14:52:24Z</time>
      </trkpt>
      <trkpt lat="50.33453" lon="3.16485">
        <ele>56.37</ele>
        <time>2015-09-27T14:52:36Z</time>
      </trkpt>
      <trkpt lat="50.33448" lon="3.16501">
        <ele>56.37</ele>
        <time>2015-09-27T14:52:47Z</time>
      </trkpt>
      <trkpt lat="50.33438" lon="3.16502">
        <ele>56.37</ele>
        <time>2015-09-27T14:52:59Z</time>
      </trkpt>
      <trkpt lat="50.33425" lon="3.16499">
        <ele>56.37</ele>
        <time>2015-09-27T14:53:10Z</time>
      </trkpt>
      <trkpt lat="50.33409" lon="3.16495">
        <ele>56.37</ele>
        <time>2015-09-27T14:53:25Z</time>
      </trkpt>
      <trkpt lat="50.33408" lon="3.16494">
        <ele>56.37</ele>
        <time>2015-09-27T14:53:26Z</time>
      </trkpt>
      <trkpt lat="50.33403" lon="3.16494">
        <ele>56.37</ele>
        <time>2015-09-27T14:53:30Z</time>
      </trkpt>
      <trkpt lat="50.33387" lon="3.16491">
        <ele>56.37</ele>
        <time>2015-09-27T14:53:45Z</time>
      </trkpt>
      <trkpt lat="50.33373" lon="3.16491">
        <ele>56.86</ele>
        <time>2015-09-27T14:54:00Z</time>
      </trkpt>
      <trkpt lat="50.33362" lon="3.16488">
        <ele>57.34</ele>
        <time>2015-09-27T14:54:14Z</time>
      </trkpt>
      <trkpt lat="50.33361" lon="3.16493">
        <ele>57.34</ele>
        <time>2015-09-27T14:54:27Z</time>
      </trkpt>
      <trkpt lat="50.3336" lon="3.16504">
        <ele>55.89</ele>
        <time>2015-09-27T14:54:34Z</time>
      </trkpt>
      <trkpt lat="50.33357" lon="3.16528">
        <ele>54.93</ele>
        <time>2015-09-27T14:54:47Z</time>
      </trkpt>
      <trkpt lat="50.33356" lon="3.16537">
        <ele>54.45</ele>
        <time>2015-09-27T14:55:02Z</time>
      </trkpt>
      <trkpt lat="50.33352" lon="3.16533">
        <ele>54.45</ele>
        <time>2015-09-27T14:55:08Z</time>
      </trkpt>
      <trkpt lat="50.33344" lon="3.16528">
        <ele>55.89</ele>
        <time>2015-09-27T14:55:16Z</time>
      </trkpt>
      <trkpt lat="50.33334" lon="3.1653">
        <ele>55.89</ele>
        <time>2015-09-27T14:55:30Z</time>
      </trkpt>
      <trkpt lat="50.33333" lon="3.16532">
        <ele>54.93</ele>
        <time>2015-09-27T14:55:45Z</time>
      </trkpt>
      <trkpt lat="50.33328" lon="3.16524">
        <ele>55.89</ele>
        <time>2015-09-27T14:55:55Z</time>
      </trkpt>
      <trkpt lat="50.33327" lon="3.16523">
        <ele>55.89</ele>
        <time>2015-09-27T14:55:56Z</time>
      </trkpt>
      <trkpt lat="50.33325" lon="3.165">
        <ele>56.86</ele>
        <time>2015-09-27T14:56:09Z</time>
      </trkpt>
      <trkpt lat="50.33332" lon="3.16488">
        <ele>57.34</ele>
        <time>2015-09-27T14:56:27Z</time>
      </trkpt>
      <trkpt lat="50.33344" lon="3.16484">
        <ele>57.34</ele>
        <time>2015-09-27T14:56:40Z</time>
      </trkpt>
      <trkpt lat="50.33333" lon="3.16485">
        <ele>57.34</ele>
        <time>2015-09-27T14:56:53Z</time>
      </trkpt>
      <trkpt lat="50.33322" lon="3.16485">
        <ele>57.34</ele>
        <time>2015-09-27T14:57:09Z</time>
      </trkpt>
      <trkpt lat="50.33312" lon="3.16482">
        <ele>57.82</ele>
        <time>2015-09-27T14:57:20Z</time>
      </trkpt>
      <trkpt lat="50.33305" lon="3.16481">
        <ele>57.82</ele>
        <time>2015-09-27T14:57:28Z</time>
      </trkpt>
      <trkpt lat="50.33292" lon="3.1648">
        <ele>58.3</ele>
        <time>2015-09-27T14:57:42Z</time>
      </trkpt>
      <trkpt lat="50.33288" lon="3.16487">
        <ele>58.3</ele>
        <time>2015-09-27T14:57:56Z</time>
      </trkpt>
      <trkpt lat="50.3329" lon="3.16502">
        <ele>55.89</ele>
        <time>2015-09-27T14:58:12Z</time>
      </trkpt>
      <trkpt lat="50.33289" lon="3.16495">
        <ele>57.34</ele>
        <time>2015-09-27T14:58:22Z</time>
      </trkpt>
      <trkpt lat="50.33288" lon="3.16488">
        <ele>57.82</ele>
        <time>2015-09-27T14:58:27Z</time>
      </trkpt>
      <trkpt lat="50.33284" lon="3.16483">
        <ele>57.82</ele>
        <time>2015-09-27T14:58:32Z</time>
      </trkpt>
      <trkpt lat="50.33268" lon="3.16476">
        <ele>57.82</ele>
        <time>2015-09-27T14:58:46Z</time>
      </trkpt>
      <trkpt lat="50.33253" lon="3.16474">
        <ele>57.82</ele>
        <time>2015-09-27T14:59:00Z</time>
      </trkpt>
      <trkpt lat="50.3324" lon="3.16471">
        <ele>57.82</ele>
        <time>2015-09-27T14:59:11Z</time>
      </trkpt>
      <trkpt lat="50.33226" lon="3.16473">
        <ele>57.82</ele>
        <time>2015-09-27T14:59:24Z</time>
      </trkpt>
      <trkpt lat="50.33212" lon="3.16472">
        <ele>56.37</ele>
        <time>2015-09-27T14:59:37Z</time>
      </trkpt>
      <trkpt lat="50.33211" lon="3.16472">
        <ele>56.37</ele>
        <time>2015-09-27T14:59:38Z</time>
      </trkpt>
      <trkpt lat="50.33197" lon="3.1647">
        <ele>56.37</ele>
        <time>2015-09-27T14:59:50Z</time>
      </trkpt>
      <trkpt lat="50.33194" lon="3.16472">
        <ele>56.37</ele>
        <time>2015-09-27T15:00:10Z</time>
      </trkpt>
      <trkpt lat="50.33191" lon="3.16466">
        <ele>55.41</ele>
        <time>2015-09-27T15:00:28Z</time>
      </trkpt>
      <trkpt lat="50.33186" lon="3.16465">
        <ele>55.41</ele>
        <time>2015-09-27T15:00:45Z</time>
      </trkpt>
      <trkpt lat="50.33177" lon="3.16466">
        <ele>55.41</ele>
        <time>2015-09-27T15:00:51Z</time>
      </trkpt>
      <trkpt lat="50.33164" lon="3.16458">
        <ele>54.93</ele>
        <time>2015-09-27T15:01:04Z</time>
      </trkpt>
      <trkpt lat="50.33155" lon="3.16454">
        <ele>54.93</ele>
        <time>2015-09-27T15:01:12Z</time>
      </trkpt>
      <trkpt lat="50.33142" lon="3.16445">
        <ele>54.93</ele>
        <time>2015-09-27T15:01:24Z</time>
      </trkpt>
      <trkpt lat="50.33136" lon="3.16445">
        <ele>54.45</ele>
        <time>2015-09-27T15:01:38Z</time>
      </trkpt>
      <trkpt lat="50.33127" lon="3.16448">
        <ele>51.57</ele>
        <time>2015-09-27T15:01:51Z</time>
      </trkpt>
      <trkpt lat="50.33124" lon="3.16439">
        <ele>52.05</ele>
        <time>2015-09-27T15:02:07Z</time>
      </trkpt>
      <trkpt lat="50.33124" lon="3.1644">
        <ele>52.05</ele>
        <time>2015-09-27T15:02:27Z</time>
      </trkpt>
      <trkpt lat="50.33125" lon="3.16445">
        <ele>52.05</ele>
        <time>2015-09-27T15:02:46Z</time>
      </trkpt>
      <trkpt lat="50.33122" lon="3.16446">
        <ele>52.05</ele>
        <time>2015-09-27T15:03:06Z</time>
      </trkpt>
      <trkpt lat="50.33121" lon="3.16446">
        <ele>54.93</ele>
        <time>2015-09-27T15:03:15Z</time>
      </trkpt>
      <trkpt lat="50.33121" lon="3.16442">
        <ele>52.05</ele>
        <time>2015-09-27T15:03:30Z</time>
      </trkpt>
      <trkpt lat="50.33122" lon="3.16444">
        <ele>52.05</ele>
        <time>2015-09-27T15:03:44Z</time>
      </trkpt>
      <trkpt lat="50.33128" lon="3.16453">
        <ele>52.05</ele>
        <time>2015-09-27T15:03:57Z</time>
      </trkpt>
      <trkpt lat="50.33132" lon="3.16451">
        <ele>53.97</ele>
        <time>2015-09-27T15:04:09Z</time>
      </trkpt>
      <trkpt lat="50.33145" lon="3.16443">
        <ele>55.41</ele>
        <time>2015-09-27T15:04:21Z</time>
      </trkpt>
      <trkpt lat="50.33151" lon="3.1644">
        <ele>55.89</ele>
        <time>2015-09-27T15:04:35Z</time>
      </trkpt>
      <trkpt lat="50.3315" lon="3.16441">
        <ele>56.37</ele>
        <time>2015-09-27T15:04:49Z</time>
      </trkpt>
      <trkpt lat="50.33151" lon="3.16438">
        <ele>56.37</ele>
        <time>2015-09-27T15:05:13Z</time>
      </trkpt>
      <trkpt lat="50.33155" lon="3.16437">
        <ele>56.37</ele>
        <time>2015-09-27T15:05:30Z</time>
      </trkpt>
      <trkpt lat="50.33154" lon="3.16436">
        <ele>56.37</ele>
        <time>2015-09-27T15:05:44Z</time>
      </trkpt>
      <trkpt lat="50.33155" lon="3.16436">
        <ele>56.37</ele>
        <time>2015-09-27T15:05:57Z</time>
      </trkpt>
      <trkpt lat="50.33155" lon="3.16433">
        <ele>56.37</ele>
        <time>2015-09-27T15:06:12Z</time>
      </trkpt>
      <trkpt lat="50.33155" lon="3.16431">
        <ele>56.37</ele>
        <time>2015-09-27T15:06:29Z</time>
      </trkpt>
      <trkpt lat="50.33154" lon="3.16432">
        <ele>56.37</ele>
        <time>2015-09-27T15:06:46Z</time>
      </trkpt>
      <trkpt lat="50.33153" lon="3.16436">
        <ele>56.86</ele>
        <time>2015-09-27T15:06:59Z</time>
      </trkpt>
      <trkpt lat="50.33152" lon="3.16443">
        <ele>56.86</ele>
        <time>2015-09-27T15:07:15Z</time>
      </trkpt>
      <trkpt lat="50.33146" lon="3.16444">
        <ele>56.86</ele>
        <time>2015-09-27T15:07:34Z</time>
      </trkpt>
      <trkpt lat="50.33145" lon="3.16459">
        <ele>55.89</ele>
        <time>2015-09-27T15:07:48Z</time>
      </trkpt>
      <trkpt lat="50.33148" lon="3.16474">
        <ele>54.93</ele>
        <time>2015-09-27T15:08:06Z</time>
      </trkpt>
      <trkpt lat="50.33152" lon="3.16481">
        <ele>54.45</ele>
        <time>2015-09-27T15:08:19Z</time>
      </trkpt>
      <trkpt lat="50.33157" lon="3.1649">
        <ele>53.97</ele>
        <time>2015-09-27T15:08:35Z</time>
      </trkpt>
      <trkpt lat="50.3316" lon="3.16505">
        <ele>53.97</ele>
        <time>2015-09-27T15:08:49Z</time>
      </trkpt>
      <trkpt lat="50.33164" lon="3.16516">
        <ele>53.49</ele>
        <time>2015-09-27T15:09:06Z</time>
      </trkpt>
      <trkpt lat="50.33173" lon="3.16524">
        <ele>53.49</ele>
        <time>2015-09-27T15:09:23Z</time>
      </trkpt>
      <trkpt lat="50.33177" lon="3.16528">
        <ele>53.01</ele>
        <time>2015-09-27T15:09:40Z</time>
      </trkpt>
      <trkpt lat="50.33184" lon="3.16535">
        <ele>53.01</ele>
        <time>2015-09-27T15:09:56Z</time>
      </trkpt>
      <trkpt lat="50.33193" lon="3.1655">
        <ele>53.01</ele>
        <time>2015-09-27T15:10:11Z</time>
      </trkpt>
      <trkpt lat="50.33198" lon="3.16557">
        <ele>53.49</ele>
        <time>2015-09-27T15:10:25Z</time>
      </trkpt>
      <trkpt lat="50.33207" lon="3.16563">
        <ele>53.49</ele>
        <time>2015-09-27T15:10:40Z</time>
      </trkpt>
      <trkpt lat="50.33214" lon="3.16567">
        <ele>53.49</ele>
        <time>2015-09-27T15:10:54Z</time>
      </trkpt>
      <trkpt lat="50.33222" lon="3.16575">
        <ele>53.49</ele>
        <time>2015-09-27T15:11:12Z</time>
      </trkpt>
      <trkpt lat="50.33227" lon="3.16584">
        <ele>53.01</ele>
        <time>2015-09-27T15:11:28Z</time>
      </trkpt>
      <trkpt lat="50.33235" lon="3.16588">
        <ele>53.01</ele>
        <time>2015-09-27T15:11:44Z</time>
      </trkpt>
      <trkpt lat="50.33246" lon="3.1659">
        <ele>53.01</ele>
        <time>2015-09-27T15:12:00Z</time>
      </trkpt>
      <trkpt lat="50.33255" lon="3.1659">
        <ele>54.45</ele>
        <time>2015-09-27T15:12:15Z</time>
      </trkpt>
      <trkpt lat="50.33256" lon="3.1659">
        <ele>54.45</ele>
        <time>2015-09-27T15:12:16Z</time>
      </trkpt>
      <trkpt lat="50.33257" lon="3.1659">
        <ele>54.45</ele>
        <time>2015-09-27T15:12:19Z</time>
      </trkpt>
      <trkpt lat="50.33264" lon="3.1659">
        <ele>53.97</ele>
        <time>2015-09-27T15:12:32Z</time>
      </trkpt>
      <trkpt lat="50.33279" lon="3.16591">
        <ele>52.53</ele>
        <time>2015-09-27T15:12:46Z</time>
      </trkpt>
      <trkpt lat="50.3328" lon="3.16591">
        <ele>52.53</ele>
        <time>2015-09-27T15:12:47Z</time>
      </trkpt>
      <trkpt lat="50.33302" lon="3.16591">
        <ele>52.05</ele>
        <time>2015-09-27T15:13:02Z</time>
      </trkpt>
      <trkpt lat="50.33311" lon="3.16592">
        <ele>52.05</ele>
        <time>2015-09-27T15:13:08Z</time>
      </trkpt>
      <trkpt lat="50.3331" lon="3.16582">
        <ele>52.05</ele>
        <time>2015-09-27T15:13:22Z</time>
      </trkpt>
      <trkpt lat="50.33316" lon="3.16581">
        <ele>52.05</ele>
        <time>2015-09-27T15:13:37Z</time>
      </trkpt>
      <trkpt lat="50.33313" lon="3.16582">
        <ele>52.05</ele>
        <time>2015-09-27T15:13:50Z</time>
      </trkpt>
      <trkpt lat="50.33309" lon="3.16568">
        <ele>52.05</ele>
        <time>2015-09-27T15:14:05Z</time>
      </trkpt>
      <trkpt lat="50.33309" lon="3.16574">
        <ele>52.05</ele>
        <time>2015-09-27T15:14:18Z</time>
      </trkpt>
      <trkpt lat="50.33312" lon="3.16586">
        <ele>52.05</ele>
        <time>2015-09-27T15:14:31Z</time>
      </trkpt>
      <trkpt lat="50.33315" lon="3.16584">
        <ele>52.05</ele>
        <time>2015-09-27T15:14:48Z</time>
      </trkpt>
      <trkpt lat="50.33313" lon="3.16594">
        <ele>52.05</ele>
        <time>2015-09-27T15:15:07Z</time>
      </trkpt>
      <trkpt lat="50.33312" lon="3.16603">
        <ele>52.05</ele>
        <time>2015-09-27T15:15:26Z</time>
      </trkpt>
      <trkpt lat="50.33311" lon="3.16606">
        <ele>51.57</ele>
        <time>2015-09-27T15:15:39Z</time>
      </trkpt>
      <trkpt lat="50.33312" lon="3.16603">
        <ele>53.01</ele>
        <time>2015-09-27T15:15:56Z</time>
      </trkpt>
      <trkpt lat="50.33313" lon="3.16593">
        <ele>53.01</ele>
        <time>2015-09-27T15:16:08Z</time>
      </trkpt>
      <trkpt lat="50.33316" lon="3.16584">
        <ele>53.01</ele>
        <time>2015-09-27T15:16:21Z</time>
      </trkpt>
      <trkpt lat="50.33316" lon="3.16581">
        <ele>53.01</ele>
        <time>2015-09-27T15:16:33Z</time>
      </trkpt>
      <trkpt lat="50.33307" lon="3.16598">
        <ele>52.53</ele>
        <time>2015-09-27T15:16:49Z</time>
      </trkpt>
      <trkpt lat="50.33301" lon="3.16597">
        <ele>53.01</ele>
        <time>2015-09-27T15:17:04Z</time>
      </trkpt>
      <trkpt lat="50.33307" lon="3.16597">
        <ele>53.01</ele>
        <time>2015-09-27T15:17:20Z</time>
      </trkpt>
      <trkpt lat="50.33307" lon="3.16597">
        <ele>53.01</ele>
        <time>2015-09-27T15:17:36Z</time>
      </trkpt>
      <trkpt lat="50.33303" lon="3.16594">
        <ele>53.01</ele>
        <time>2015-09-27T15:17:55Z</time>
      </trkpt>
      <trkpt lat="50.33296" lon="3.16594">
        <ele>53.01</ele>
        <time>2015-09-27T15:18:12Z</time>
      </trkpt>
      <trkpt lat="50.33288" lon="3.16594">
        <ele>53.49</ele>
        <time>2015-09-27T15:18:29Z</time>
      </trkpt>
      <trkpt lat="50.33282" lon="3.1659">
        <ele>53.49</ele>
        <time>2015-09-27T15:18:43Z</time>
      </trkpt>
      <trkpt lat="50.33274" lon="3.16593">
        <ele>53.97</ele>
        <time>2015-09-27T15:18:57Z</time>
      </trkpt>
      <trkpt lat="50.33265" lon="3.16589">
        <ele>54.45</ele>
        <time>2015-09-27T15:19:09Z</time>
      </trkpt>
      <trkpt lat="50.33257" lon="3.1659">
        <ele>54.45</ele>
        <time>2015-09-27T15:19:23Z</time>
      </trkpt>
      <trkpt lat="50.33257" lon="3.1659">
        <ele>54.45</ele>
        <time>2015-09-27T15:19:24Z</time>
      </trkpt>
      <trkpt lat="50.33249" lon="3.16593">
        <ele>53.49</ele>
        <time>2015-09-27T15:19:36Z</time>
      </trkpt>
      <trkpt lat="50.33238" lon="3.16592">
        <ele>53.01</ele>
        <time>2015-09-27T15:19:52Z</time>
      </trkpt>
      <trkpt lat="50.33231" lon="3.1659">
        <ele>53.01</ele>
        <time>2015-09-27T15:20:15Z</time>
      </trkpt>
      <trkpt lat="50.33222" lon="3.16573">
        <ele>53.01</ele>
        <time>2015-09-27T15:20:29Z</time>
      </trkpt>
      <trkpt lat="50.33214" lon="3.16563">
        <ele>53.01</ele>
        <time>2015-09-27T15:20:42Z</time>
      </trkpt>
      <trkpt lat="50.33203" lon="3.16554">
        <ele>53.01</ele>
        <time>2015-09-27T15:20:57Z</time>
      </trkpt>
      <trkpt lat="50.33194" lon="3.16544">
        <ele>53.01</ele>
        <time>2015-09-27T15:21:07Z</time>
      </trkpt>
      <trkpt lat="50.33184" lon="3.16528">
        <ele>53.01</ele>
        <time>2015-09-27T15:21:16Z</time>
      </trkpt>
      <trkpt lat="50.33171" lon="3.16521">
        <ele>53.01</ele>
        <time>2015-09-27T15:21:31Z</time>
      </trkpt>
      <trkpt lat="50.33164" lon="3.16507">
        <ele>53.01</ele>
        <time>2015-09-27T15:21:45Z</time>
      </trkpt>
      <trkpt lat="50.33158" lon="3.16491">
        <ele>53.01</ele>
        <time>2015-09-27T15:21:53Z</time>
      </trkpt>
      <trkpt lat="50.33154" lon="3.16484">
        <ele>53.01</ele>
        <time>2015-09-27T15:21:57Z</time>
      </trkpt>
      <trkpt lat="50.33151" lon="3.16477">
        <ele>54.45</ele>
        <time>2015-09-27T15:22:01Z</time>
      </trkpt>
      <trkpt lat="50.33149" lon="3.16458">
        <ele>55.41</ele>
        <time>2015-09-27T15:22:16Z</time>
      </trkpt>
      <trkpt lat="50.33142" lon="3.16438">
        <ele>55.89</ele>
        <time>2015-09-27T15:22:34Z</time>
      </trkpt>
      <trkpt lat="50.33139" lon="3.16436">
        <ele>55.89</ele>
        <time>2015-09-27T15:22:36Z</time>
      </trkpt>
      <trkpt lat="50.33137" lon="3.16434">
        <ele>54.45</ele>
        <time>2015-09-27T15:22:38Z</time>
      </trkpt>
      <trkpt lat="50.33129" lon="3.16425">
        <ele>53.97</ele>
        <time>2015-09-27T15:22:50Z</time>
      </trkpt>
      <trkpt lat="50.33123" lon="3.16421">
        <ele>53.49</ele>
        <time>2015-09-27T15:23:10Z</time>
      </trkpt>
      <trkpt lat="50.33123" lon="3.16421">
        <ele>53.49</ele>
        <time>2015-09-27T15:23:26Z</time>
      </trkpt>
      <trkpt lat="50.33124" lon="3.16417">
        <ele>53.49</ele>
        <time>2015-09-27T15:23:44Z</time>
      </trkpt>
      <trkpt lat="50.33121" lon="3.16416">
        <ele>53.49</ele>
        <time>2015-09-27T15:23:57Z</time>
      </trkpt>
      <trkpt lat="50.33113" lon="3.16405">
        <ele>54.45</ele>
        <time>2015-09-27T15:24:11Z</time>
      </trkpt>
      <trkpt lat="50.33104" lon="3.16398">
        <ele>54.45</ele>
        <time>2015-09-27T15:24:22Z</time>
      </trkpt>
      <trkpt lat="50.33095" lon="3.16384">
        <ele>54.93</ele>
        <time>2015-09-27T15:24:34Z</time>
      </trkpt>
      <trkpt lat="50.33084" lon="3.16372">
        <ele>54.93</ele>
        <time>2015-09-27T15:24:46Z</time>
      </trkpt>
      <trkpt lat="50.33074" lon="3.1636">
        <ele>55.41</ele>
        <time>2015-09-27T15:24:58Z</time>
      </trkpt>
      <trkpt lat="50.33065" lon="3.16349">
        <ele>55.41</ele>
        <time>2015-09-27T15:25:09Z</time>
      </trkpt>
      <trkpt lat="50.33062" lon="3.16346">
        <ele>55.41</ele>
        <time>2015-09-27T15:25:12Z</time>
      </trkpt>
      <trkpt lat="50.33055" lon="3.16339">
        <ele>55.41</ele>
        <time>2015-09-27T15:25:20Z</time>
      </trkpt>
      <trkpt lat="50.33047" lon="3.16326">
        <ele>55.41</ele>
        <time>2015-09-27T15:25:35Z</time>
      </trkpt>
      <trkpt lat="50.33044" lon="3.16322">
        <ele>55.41</ele>
        <time>2015-09-27T15:25:42Z</time>
      </trkpt>
      <trkpt lat="50.33032" lon="3.1631">
        <ele>55.41</ele>
        <time>2015-09-27T15:25:56Z</time>
      </trkpt>
      <trkpt lat="50.33028" lon="3.16303">
        <ele>55.41</ele>
        <time>2015-09-27T15:26:01Z</time>
      </trkpt>
      <trkpt lat="50.33023" lon="3.16298">
        <ele>55.41</ele>
        <time>2015-09-27T15:26:05Z</time>
      </trkpt>
      <trkpt lat="50.33019" lon="3.16294">
        <ele>55.41</ele>
        <time>2015-09-27T15:26:08Z</time>
      </trkpt>
      <trkpt lat="50.33018" lon="3.16292">
        <ele>55.41</ele>
        <time>2015-09-27T15:26:09Z</time>
      </trkpt>
      <trkpt lat="50.33007" lon="3.16284">
        <ele>55.41</ele>
        <time>2015-09-27T15:26:20Z</time>
      </trkpt>
      <trkpt lat="50.33005" lon="3.16283">
        <ele>55.41</ele>
        <time>2015-09-27T15:26:21Z</time>
      </trkpt>
      <trkpt lat="50.33004" lon="3.16282">
        <ele>55.41</ele>
        <time>2015-09-27T15:26:22Z</time>
      </trkpt>
      <trkpt lat="50.3299" lon="3.16277">
        <ele>55.41</ele>
        <time>2015-09-27T15:26:33Z</time>
      </trkpt>
      <trkpt lat="50.32989" lon="3.16277">
        <ele>55.41</ele>
        <time>2015-09-27T15:26:34Z</time>
      </trkpt>
      <trkpt lat="50.32986" lon="3.16276">
        <ele>55.41</ele>
        <time>2015-09-27T15:26:36Z</time>
      </trkpt>
      <trkpt lat="50.32982" lon="3.16276">
        <ele>55.41</ele>
        <time>2015-09-27T15:26:40Z</time>
      </trkpt>
      <trkpt lat="50.32981" lon="3.16277">
        <ele>55.41</ele>
        <time>2015-09-27T15:26:41Z</time>
      </trkpt>
      <trkpt lat="50.32972" lon="3.16275">
        <ele>55.41</ele>
        <time>2015-09-27T15:26:49Z</time>
      </trkpt>
      <trkpt lat="50.32955" lon="3.16275">
        <ele>55.41</ele>
        <time>2015-09-27T15:27:04Z</time>
      </trkpt>
      <trkpt lat="50.32943" lon="3.16272">
        <ele>55.89</ele>
        <time>2015-09-27T15:27:14Z</time>
      </trkpt>
      <trkpt lat="50.32942" lon="3.16272">
        <ele>55.89</ele>
        <time>2015-09-27T15:27:15Z</time>
      </trkpt>
      <trkpt lat="50.32926" lon="3.1627">
        <ele>55.89</ele>
        <time>2015-09-27T15:27:30Z</time>
      </trkpt>
      <trkpt lat="50.32909" lon="3.16267">
        <ele>56.37</ele>
        <time>2015-09-27T15:27:46Z</time>
      </trkpt>
      <trkpt lat="50.32902" lon="3.16258">
        <ele>57.34</ele>
        <time>2015-09-27T15:27:58Z</time>
      </trkpt>
      <trkpt lat="50.32897" lon="3.16251">
        <ele>58.3</ele>
        <time>2015-09-27T15:28:12Z</time>
      </trkpt>
      <trkpt lat="50.32893" lon="3.16245">
        <ele>58.78</ele>
        <time>2015-09-27T15:28:27Z</time>
      </trkpt>
      <trkpt lat="50.32896" lon="3.16248">
        <ele>57.34</ele>
        <time>2015-09-27T15:28:32Z</time>
      </trkpt>
      <trkpt lat="50.32897" lon="3.16249">
        <ele>57.34</ele>
        <time>2015-09-27T15:28:33Z</time>
      </trkpt>
      <trkpt lat="50.32898" lon="3.16244">
        <ele>57.34</ele>
        <time>2015-09-27T15:28:48Z</time>
      </trkpt>
      <trkpt lat="50.32899" lon="3.16243">
        <ele>58.78</ele>
        <time>2015-09-27T15:28:52Z</time>
      </trkpt>
      <trkpt lat="50.32902" lon="3.16248">
        <ele>58.78</ele>
        <time>2015-09-27T15:29:08Z</time>
      </trkpt>
      <trkpt lat="50.32904" lon="3.16248">
        <ele>58.78</ele>
        <time>2015-09-27T15:29:22Z</time>
      </trkpt>
      <trkpt lat="50.32901" lon="3.16244">
        <ele>58.3</ele>
        <time>2015-09-27T15:29:40Z</time>
      </trkpt>
      <trkpt lat="50.32902" lon="3.16244">
        <ele>57.34</ele>
        <time>2015-09-27T15:29:43Z</time>
      </trkpt>
      <trkpt lat="50.32901" lon="3.16247">
        <ele>57.34</ele>
        <time>2015-09-27T15:29:57Z</time>
      </trkpt>
      <trkpt lat="50.32903" lon="3.16248">
        <ele>57.34</ele>
        <time>2015-09-27T15:30:20Z</time>
      </trkpt>
      <trkpt lat="50.32905" lon="3.16245">
        <ele>57.34</ele>
        <time>2015-09-27T15:30:37Z</time>
      </trkpt>
      <trkpt lat="50.32898" lon="3.16246">
        <ele>57.34</ele>
        <time>2015-09-27T15:30:52Z</time>
      </trkpt>
      <trkpt lat="50.32903" lon="3.16253">
        <ele>57.34</ele>
        <time>2015-09-27T15:31:08Z</time>
      </trkpt>
      <trkpt lat="50.32909" lon="3.16252">
        <ele>56.86</ele>
        <time>2015-09-27T15:31:24Z</time>
      </trkpt>
      <trkpt lat="50.3291" lon="3.16248">
        <ele>56.86</ele>
        <time>2015-09-27T15:31:42Z</time>
      </trkpt>
      <trkpt lat="50.32912" lon="3.16248">
        <ele>56.86</ele>
        <time>2015-09-27T15:32:11Z</time>
      </trkpt>
      <trkpt lat="50.32911" lon="3.16246">
        <ele>57.82</ele>
        <time>2015-09-27T15:32:34Z</time>
      </trkpt>
      <trkpt lat="50.32911" lon="3.16248">
        <ele>57.82</ele>
        <time>2015-09-27T15:32:52Z</time>
      </trkpt>
      <trkpt lat="50.32907" lon="3.16245">
        <ele>57.82</ele>
        <time>2015-09-27T15:33:23Z</time>
      </trkpt>
      <trkpt lat="50.32906" lon="3.16243">
        <ele>56.86</ele>
        <time>2015-09-27T15:33:43Z</time>
      </trkpt>
      <trkpt lat="50.32902" lon="3.16257">
        <ele>56.86</ele>
        <time>2015-09-27T15:33:56Z</time>
      </trkpt>
      <trkpt lat="50.32895" lon="3.16265">
        <ele>56.37</ele>
        <time>2015-09-27T15:34:10Z</time>
      </trkpt>
      <trkpt lat="50.32881" lon="3.16266">
        <ele>56.37</ele>
        <time>2015-09-27T15:34:26Z</time>
      </trkpt>
      <trkpt lat="50.32869" lon="3.16263">
        <ele>57.34</ele>
        <time>2015-09-27T15:34:39Z</time>
      </trkpt>
      <trkpt lat="50.3285" lon="3.1626">
        <ele>57.34</ele>
        <time>2015-09-27T15:34:57Z</time>
      </trkpt>
      <trkpt lat="50.32835" lon="3.1626">
        <ele>57.34</ele>
        <time>2015-09-27T15:35:12Z</time>
      </trkpt>
      <trkpt lat="50.32822" lon="3.1626">
        <ele>57.34</ele>
        <time>2015-09-27T15:35:26Z</time>
      </trkpt>
      <trkpt lat="50.32806" lon="3.16261">
        <ele>57.34</ele>
        <time>2015-09-27T15:35:39Z</time>
      </trkpt>
      <trkpt lat="50.32805" lon="3.1626">
        <ele>57.34</ele>
        <time>2015-09-27T15:35:40Z</time>
      </trkpt>
      <trkpt lat="50.32785" lon="3.1626">
        <ele>56.37</ele>
        <time>2015-09-27T15:35:57Z</time>
      </trkpt>
      <trkpt lat="50.32773" lon="3.16258">
        <ele>56.37</ele>
        <time>2015-09-27T15:36:11Z</time>
      </trkpt>
      <trkpt lat="50.32769" lon="3.16257">
        <ele>55.89</ele>
        <time>2015-09-27T15:36:15Z</time>
      </trkpt>
      <trkpt lat="50.32752" lon="3.16253">
        <ele>54.93</ele>
        <time>2015-09-27T15:36:29Z</time>
      </trkpt>
      <trkpt lat="50.32743" lon="3.16254">
        <ele>54.93</ele>
        <time>2015-09-27T15:36:43Z</time>
      </trkpt>
      <trkpt lat="50.32738" lon="3.16253">
        <ele>54.45</ele>
        <time>2015-09-27T15:36:58Z</time>
      </trkpt>
      <trkpt lat="50.32728" lon="3.16257">
        <ele>52.53</ele>
        <time>2015-09-27T15:37:13Z</time>
      </trkpt>
      <trkpt lat="50.32721" lon="3.16255">
        <ele>51.57</ele>
        <time>2015-09-27T15:37:27Z</time>
      </trkpt>
      <trkpt lat="50.32719" lon="3.16257">
        <ele>53.01</ele>
        <time>2015-09-27T15:37:36Z</time>
      </trkpt>
      <trkpt lat="50.32718" lon="3.16256">
        <ele>53.01</ele>
        <time>2015-09-27T15:37:37Z</time>
      </trkpt>
      <trkpt lat="50.32717" lon="3.16254">
        <ele>54.45</ele>
        <time>2015-09-27T15:37:49Z</time>
      </trkpt>
      <trkpt lat="50.32705" lon="3.16243">
        <ele>54.45</ele>
        <time>2015-09-27T15:38:01Z</time>
      </trkpt>
      <trkpt lat="50.32703" lon="3.16243">
        <ele>54.93</ele>
        <time>2015-09-27T15:38:03Z</time>
      </trkpt>
      <trkpt lat="50.32692" lon="3.16241">
        <ele>55.89</ele>
        <time>2015-09-27T15:38:15Z</time>
      </trkpt>
      <trkpt lat="50.32687" lon="3.1623">
        <ele>56.37</ele>
        <time>2015-09-27T15:38:26Z</time>
      </trkpt>
      <trkpt lat="50.32681" lon="3.16222">
        <ele>56.86</ele>
        <time>2015-09-27T15:38:38Z</time>
      </trkpt>
      <trkpt lat="50.32675" lon="3.16216">
        <ele>57.34</ele>
        <time>2015-09-27T15:38:48Z</time>
      </trkpt>
      <trkpt lat="50.32665" lon="3.16212">
        <ele>57.34</ele>
        <time>2015-09-27T15:39:00Z</time>
      </trkpt>
      <trkpt lat="50.32663" lon="3.16218">
        <ele>57.34</ele>
        <time>2015-09-27T15:39:18Z</time>
      </trkpt>
      <trkpt lat="50.32655" lon="3.16212">
        <ele>57.34</ele>
        <time>2015-09-27T15:39:37Z</time>
      </trkpt>
      <trkpt lat="50.32653" lon="3.16211">
        <ele>57.34</ele>
        <time>2015-09-27T15:39:39Z</time>
      </trkpt>
      <trkpt lat="50.32638" lon="3.16218">
        <ele>57.34</ele>
        <time>2015-09-27T15:39:51Z</time>
      </trkpt>
      <trkpt lat="50.32629" lon="3.16224">
        <ele>57.82</ele>
        <time>2015-09-27T15:39:59Z</time>
      </trkpt>
      <trkpt lat="50.32624" lon="3.16233">
        <ele>57.82</ele>
        <time>2015-09-27T15:40:06Z</time>
      </trkpt>
      <trkpt lat="50.32615" lon="3.16237">
        <ele>57.82</ele>
        <time>2015-09-27T15:40:21Z</time>
      </trkpt>
      <trkpt lat="50.32602" lon="3.16239">
        <ele>57.82</ele>
        <time>2015-09-27T15:40:32Z</time>
      </trkpt>
      <trkpt lat="50.3259" lon="3.16244">
        <ele>56.37</ele>
        <time>2015-09-27T15:40:42Z</time>
      </trkpt>
      <trkpt lat="50.32581" lon="3.16254">
        <ele>55.41</ele>
        <time>2015-09-27T15:40:53Z</time>
      </trkpt>
      <trkpt lat="50.32572" lon="3.16262">
        <ele>54.93</ele>
        <time>2015-09-27T15:41:04Z</time>
      </trkpt>
      <trkpt lat="50.3256" lon="3.16268">
        <ele>54.45</ele>
        <time>2015-09-27T15:41:18Z</time>
      </trkpt>
      <trkpt lat="50.32557" lon="3.16267">
        <ele>53.97</ele>
        <time>2015-09-27T15:41:24Z</time>
      </trkpt>
      <trkpt lat="50.32554" lon="3.16269">
        <ele>55.89</ele>
        <time>2015-09-27T15:41:27Z</time>
      </trkpt>
      <trkpt lat="50.32552" lon="3.16268">
        <ele>54.93</ele>
        <time>2015-09-27T15:41:30Z</time>
      </trkpt>
      <trkpt lat="50.32543" lon="3.16268">
        <ele>53.97</ele>
        <time>2015-09-27T15:41:43Z</time>
      </trkpt>
      <trkpt lat="50.32543" lon="3.16268">
        <ele>53.97</ele>
        <time>2015-09-27T15:41:46Z</time>
      </trkpt>
      <trkpt lat="50.32539" lon="3.16265">
        <ele>53.49</ele>
        <time>2015-09-27T15:41:50Z</time>
      </trkpt>
      <trkpt lat="50.32514" lon="3.16256">
        <ele>54.45</ele>
        <time>2015-09-27T15:42:07Z</time>
      </trkpt>
      <trkpt lat="50.32513" lon="3.16255">
        <ele>54.45</ele>
        <time>2015-09-27T15:42:08Z</time>
      </trkpt>
      <trkpt lat="50.32491" lon="3.16241">
        <ele>55.41</ele>
        <time>2015-09-27T15:42:24Z</time>
      </trkpt>
      <trkpt lat="50.32486" lon="3.16239">
        <ele>55.41</ele>
        <time>2015-09-27T15:42:29Z</time>
      </trkpt>
      <trkpt lat="50.32479" lon="3.16249">
        <ele>54.93</ele>
        <time>2015-09-27T15:42:37Z</time>
      </trkpt>
      <trkpt lat="50.32475" lon="3.16257">
        <ele>56.86</ele>
        <time>2015-09-27T15:42:43Z</time>
      </trkpt>
      <trkpt lat="50.32473" lon="3.16262">
        <ele>56.86</ele>
        <time>2015-09-27T15:42:46Z</time>
      </trkpt>
      <trkpt lat="50.32465" lon="3.16285">
        <ele>57.34</ele>
        <time>2015-09-27T15:42:59Z</time>
      </trkpt>
      <trkpt lat="50.32462" lon="3.16295">
        <ele>57.82</ele>
        <time>2015-09-27T15:43:05Z</time>
      </trkpt>
      <trkpt lat="50.32458" lon="3.16322">
        <ele>58.3</ele>
        <time>2015-09-27T15:43:20Z</time>
      </trkpt>
      <trkpt lat="50.32456" lon="3.16325">
        <ele>58.3</ele>
        <time>2015-09-27T15:43:25Z</time>
      </trkpt>
      <trkpt lat="50.32455" lon="3.16332">
        <ele>58.3</ele>
        <time>2015-09-27T15:43:29Z</time>
      </trkpt>
      <trkpt lat="50.32452" lon="3.16345">
        <ele>59.26</ele>
        <time>2015-09-27T15:43:42Z</time>
      </trkpt>
      <trkpt lat="50.32446" lon="3.1635">
        <ele>59.74</ele>
        <time>2015-09-27T15:43:50Z</time>
      </trkpt>
      <trkpt lat="50.32444" lon="3.16354">
        <ele>60.22</ele>
        <time>2015-09-27T15:43:52Z</time>
      </trkpt>
      <trkpt lat="50.32438" lon="3.16378">
        <ele>61.18</ele>
        <time>2015-09-27T15:44:06Z</time>
      </trkpt>
      <trkpt lat="50.32436" lon="3.16381">
        <ele>61.66</ele>
        <time>2015-09-27T15:44:08Z</time>
      </trkpt>
      <trkpt lat="50.32435" lon="3.16386">
        <ele>61.66</ele>
        <time>2015-09-27T15:44:10Z</time>
      </trkpt>
      <trkpt lat="50.32429" lon="3.16392">
        <ele>62.14</ele>
        <time>2015-09-27T15:44:16Z</time>
      </trkpt>
      <trkpt lat="50.32425" lon="3.16407">
        <ele>62.14</ele>
        <time>2015-09-27T15:44:28Z</time>
      </trkpt>
      <trkpt lat="50.32417" lon="3.16422">
        <ele>62.14</ele>
        <time>2015-09-27T15:44:37Z</time>
      </trkpt>
      <trkpt lat="50.32402" lon="3.16414">
        <ele>63.1</ele>
        <time>2015-09-27T15:44:52Z</time>
      </trkpt>
      <trkpt lat="50.32393" lon="3.16412">
        <ele>63.58</ele>
        <time>2015-09-27T15:45:06Z</time>
      </trkpt>
      <trkpt lat="50.32394" lon="3.16406">
        <ele>63.58</ele>
        <time>2015-09-27T15:45:23Z</time>
      </trkpt>
      <trkpt lat="50.32384" lon="3.16402">
        <ele>63.58</ele>
        <time>2015-09-27T15:45:36Z</time>
      </trkpt>
      <trkpt lat="50.32381" lon="3.16403">
        <ele>63.58</ele>
        <time>2015-09-27T15:45:40Z</time>
      </trkpt>
      <trkpt lat="50.32373" lon="3.16402">
        <ele>63.58</ele>
        <time>2015-09-27T15:45:46Z</time>
      </trkpt>
      <trkpt lat="50.32369" lon="3.16402">
        <ele>63.58</ele>
        <time>2015-09-27T15:45:49Z</time>
      </trkpt>
      <trkpt lat="50.32361" lon="3.164">
        <ele>63.58</ele>
        <time>2015-09-27T15:45:54Z</time>
      </trkpt>
      <trkpt lat="50.32348" lon="3.16391">
        <ele>63.58</ele>
        <time>2015-09-27T15:46:05Z</time>
      </trkpt>
      <trkpt lat="50.32343" lon="3.16391">
        <ele>63.58</ele>
        <time>2015-09-27T15:46:09Z</time>
      </trkpt>
      <trkpt lat="50.32337" lon="3.16389">
        <ele>63.58</ele>
        <time>2015-09-27T15:46:13Z</time>
      </trkpt>
      <trkpt lat="50.32335" lon="3.16388">
        <ele>63.58</ele>
        <time>2015-09-27T15:46:15Z</time>
      </trkpt>
      <trkpt lat="50.32331" lon="3.16388">
        <ele>63.58</ele>
        <time>2015-09-27T15:46:18Z</time>
      </trkpt>
      <trkpt lat="50.32324" lon="3.16385">
        <ele>64.07</ele>
        <time>2015-09-27T15:46:24Z</time>
      </trkpt>
      <trkpt lat="50.32316" lon="3.16385">
        <ele>64.07</ele>
        <time>2015-09-27T15:46:31Z</time>
      </trkpt>
      <trkpt lat="50.32303" lon="3.16384">
        <ele>65.51</ele>
        <time>2015-09-27T15:46:41Z</time>
      </trkpt>
      <trkpt lat="50.32284" lon="3.16377">
        <ele>65.99</ele>
        <time>2015-09-27T15:46:57Z</time>
      </trkpt>
      <trkpt lat="50.32265" lon="3.16371">
        <ele>65.99</ele>
        <time>2015-09-27T15:47:13Z</time>
      </trkpt>
      <trkpt lat="50.32264" lon="3.16372">
        <ele>65.99</ele>
        <time>2015-09-27T15:47:26Z</time>
      </trkpt>
      <trkpt lat="50.32263" lon="3.1637">
        <ele>65.99</ele>
        <time>2015-09-27T15:47:39Z</time>
      </trkpt>
      <trkpt lat="50.32264" lon="3.1637">
        <ele>65.99</ele>
        <time>2015-09-27T15:47:57Z</time>
      </trkpt>
      <trkpt lat="50.32263" lon="3.1637">
        <ele>65.99</ele>
        <time>2015-09-27T15:48:13Z</time>
      </trkpt>
      <trkpt lat="50.32262" lon="3.16366">
        <ele>65.99</ele>
        <time>2015-09-27T15:48:31Z</time>
      </trkpt>
      <trkpt lat="50.32262" lon="3.16368">
        <ele>66.47</ele>
        <time>2015-09-27T15:48:51Z</time>
      </trkpt>
      <trkpt lat="50.32263" lon="3.1637">
        <ele>66.47</ele>
        <time>2015-09-27T15:49:05Z</time>
      </trkpt>
      <trkpt lat="50.32262" lon="3.16369">
        <ele>66.47</ele>
        <time>2015-09-27T15:49:17Z</time>
      </trkpt>
      <trkpt lat="50.32263" lon="3.16368">
        <ele>66.47</ele>
        <time>2015-09-27T15:49:32Z</time>
      </trkpt>
      <trkpt lat="50.32264" lon="3.16371">
        <ele>66.47</ele>
        <time>2015-09-27T15:49:40Z</time>
      </trkpt>
      <trkpt lat="50.32263" lon="3.16371">
        <ele>66.47</ele>
        <time>2015-09-27T15:49:51Z</time>
      </trkpt>
      <trkpt lat="50.32262" lon="3.1637">
        <ele>65.03</ele>
        <time>2015-09-27T15:50:00Z</time>
      </trkpt>
      <trkpt lat="50.32263" lon="3.16369">
        <ele>65.99</ele>
        <time>2015-09-27T15:50:02Z</time>
      </trkpt>
      <trkpt lat="50.32263" lon="3.16368">
        <ele>65.03</ele>
        <time>2015-09-27T15:50:12Z</time>
      </trkpt>
      <trkpt lat="50.32263" lon="3.16368">
        <ele>62.14</ele>
        <time>2015-09-27T15:50:18Z</time>
      </trkpt>
      <trkpt lat="50.32261" lon="3.16375">
        <ele>61.18</ele>
        <time>2015-09-27T15:50:32Z</time>
      </trkpt>
    </trkseg>
  </trk>
</gpx>